Time,TemperatureF,DewpointF,PressureIn,WindDirection,WindDirectionDegrees,WindSpeedMPH,WindSpeedGustMPH,Humidity,HourlyPrecipIn,Conditions,Clouds,dailyrainin,SoftwareType,DateUTC
2013-01-23 00:00:00,58.1,43.4,30.28,SE,144,2.0,6.0,58,0.00,,,0.00,WUHU21623XXSP,2013-01-23 06:00:00,
2013-01-23 00:10:00,58.1,43.4,30.28,ESE,112,2.0,2.0,58,0.00,,,0.00,WUHU21623XXSP,2013-01-23 06:10:00,
2013-01-23 00:15:00,58.1,43.9,30.28,SSE,162,4.0,5.0,59,0.00,,,0.00,WUHU21623XXSP,2013-01-23 06:15:00,
2013-01-23 00:20:00,57.9,43.7,30.28,SSE,157,4.0,6.0,59,0.00,,,0.00,WUHU21623XXSP,2013-01-23 06:20:00,
2013-01-23 00:25:00,57.9,43.7,30.28,SE,143,3.0,6.0,59,0.00,,,0.00,WUHU21623XXSP,2013-01-23 06:25:00,
2013-01-23 00:26:00,57.9,43.7,30.28,SSE,150,3.0,6.0,59,0.00,,,0.00,WUHU21623XXSP,2013-01-23 06:26:00,
2013-01-23 00:30:00,57.9,43.7,30.28,SSE,154,3.0,6.0,59,0.00,,,0.00,WUHU21623XXSP,2013-01-23 06:30:00,
2013-01-23 00:31:00,57.9,43.7,30.28,SSE,154,3.0,6.0,59,0.00,,,0.00,WUHU21623XXSP,2013-01-23 06:31:00,
2013-01-23 00:35:00,57.9,43.7,30.28,South,180,2.0,6.0,59,0.00,,,0.00,WUHU21623XXSP,2013-01-23 06:35:00,
2013-01-23 00:36:00,57.9,43.7,30.28,SE,135,2.0,6.0,59,0.00,,,0.00,WUHU21623XXSP,2013-01-23 06:36:00,
2013-01-23 00:40:00,57.7,43.5,30.28,SSE,158,3.0,5.0,59,0.00,,,0.00,WUHU21623XXSP,2013-01-23 06:40:00,
2013-01-23 00:41:00,57.7,43.5,30.28,SSE,162,3.0,5.0,59,0.00,,,0.00,WUHU21623XXSP,2013-01-23 06:41:00,
2013-01-23 00:42:00,57.7,43.5,30.28,SSE,165,3.0,5.0,59,0.00,,,0.00,WUHU21623XXSP,2013-01-23 06:42:00,
2013-01-23 00:46:00,57.7,43.5,30.28,SSE,163,3.0,5.0,59,0.00,,,0.00,WUHU21623XXSP,2013-01-23 06:46:00,
2013-01-23 00:47:00,57.7,43.5,30.28,SSE,163,3.0,6.0,59,0.00,,,0.00,WUHU21623XXSP,2013-01-23 06:47:00,
2013-01-23 00:51:00,57.7,43.5,30.28,SSE,165,3.0,6.0,59,0.00,,,0.00,WUHU21623XXSP,2013-01-23 06:51:00,
2013-01-23 00:52:00,57.7,43.5,30.28,SSE,157,3.0,6.0,59,0.00,,,0.00,WUHU21623XXSP,2013-01-23 06:52:00,
2013-01-23 00:56:00,57.6,43.4,30.28,South,175,3.0,6.0,59,0.00,,,0.00,WUHU21623XXSP,2013-01-23 06:56:00,
2013-01-23 00:57:00,57.6,43.4,30.28,South,171,3.0,5.0,59,0.00,,,0.00,WUHU21623XXSP,2013-01-23 06:57:00,
2013-01-23 01:04:00,57.6,43.4,30.28,SSE,157,2.0,5.0,59,0.00,,,0.00,WUHU21623XXSP,2013-01-23 07:04:00,
2013-01-23 01:09:00,57.6,43.4,30.28,SSE,164,4.0,7.0,59,0.00,,,0.00,WUHU21623XXSP,2013-01-23 07:09:00,
2013-01-23 01:14:00,57.4,43.7,30.28,SE,135,3.0,7.0,60,0.00,,,0.00,WUHU21623XXSP,2013-01-23 07:14:00,
2013-01-23 01:15:00,57.4,43.2,30.28,SE,135,2.0,7.0,59,0.00,,,0.00,WUHU21623XXSP,2013-01-23 07:15:00,
2013-01-23 01:19:00,57.4,43.7,30.28,SSE,151,2.0,4.0,60,0.00,,,0.00,WUHU21623XXSP,2013-01-23 07:19:00,
2013-01-23 01:20:00,57.4,43.7,30.28,SSE,157,3.0,4.0,60,0.00,,,0.00,WUHU21623XXSP,2013-01-23 07:20:00,
2013-01-23 01:24:00,57.2,43.5,30.28,SSE,157,2.0,4.0,60,0.00,,,0.00,WUHU21623XXSP,2013-01-23 07:24:00,
2013-01-23 01:25:00,57.4,43.7,30.28,SSE,158,2.0,4.0,60,0.00,,,0.00,WUHU21623XXSP,2013-01-23 07:25:00,
2013-01-23 01:29:00,57.0,43.3,30.28,SSE,158,2.0,3.0,60,0.00,,,0.00,WUHU21623XXSP,2013-01-23 07:29:00,
2013-01-23 01:30:00,57.0,43.3,30.28,SSE,154,2.0,3.0,60,0.00,,,0.00,WUHU21623XXSP,2013-01-23 07:30:00,
2013-01-23 01:34:00,57.0,43.3,30.28,SSE,168,2.0,3.0,60,0.00,,,0.00,WUHU21623XXSP,2013-01-23 07:34:00,
2013-01-23 01:35:00,57.0,43.3,30.28,South,176,2.0,3.0,60,0.00,,,0.00,WUHU21623XXSP,2013-01-23 07:35:00,
2013-01-23 01:39:00,57.0,43.3,30.28,SSE,157,2.0,5.0,60,0.00,,,0.00,WUHU21623XXSP,2013-01-23 07:39:00,
2013-01-23 01:40:00,57.0,43.3,30.28,SSE,157,3.0,5.0,60,0.00,,,0.00,WUHU21623XXSP,2013-01-23 07:40:00,
2013-01-23 01:44:00,57.0,43.3,30.29,SSE,157,3.0,5.0,60,0.00,,,0.00,WUHU21623XXSP,2013-01-23 07:44:00,
2013-01-23 01:45:00,57.0,43.3,30.29,SSE,157,3.0,5.0,60,0.00,,,0.00,WUHU21623XXSP,2013-01-23 07:45:00,
2013-01-23 01:50:00,57.0,43.3,30.29,SSE,157,5.0,6.0,60,0.00,,,0.00,WUHU21623XXSP,2013-01-23 07:50:00,
2013-01-23 01:55:00,56.8,43.2,30.28,SSE,157,6.0,6.0,60,0.00,,,0.00,WUHU21623XXSP,2013-01-23 07:55:00,
2013-01-23 01:56:00,56.8,43.2,30.28,SE,135,4.0,6.0,60,0.00,,,0.00,WUHU21623XXSP,2013-01-23 07:56:00,
2013-01-23 02:00:00,56.8,43.2,30.28,South,171,3.0,6.0,60,0.00,,,0.00,WUHU21623XXSP,2013-01-23 08:00:00,
2013-01-23 02:01:00,56.8,43.6,30.28,SSE,158,3.0,6.0,61,0.00,,,0.00,WUHU21623XXSP,2013-01-23 08:01:00,
2013-01-23 02:05:00,56.7,43.4,30.28,SSE,164,3.0,7.0,61,0.00,,,0.00,WUHU21623XXSP,2013-01-23 08:05:00,
2013-01-23 02:07:00,56.8,43.6,30.28,South,169,3.0,7.0,61,0.00,,,0.00,WUHU21623XXSP,2013-01-23 08:07:00,
2013-01-23 02:10:00,56.5,43.2,30.28,SSE,157,2.0,7.0,61,0.00,,,0.00,WUHU21623XXSP,2013-01-23 08:10:00,
2013-01-23 02:11:00,56.7,43.4,30.28,SSE,157,3.0,7.0,61,0.00,,,0.00,WUHU21623XXSP,2013-01-23 08:11:00,
2013-01-23 02:13:00,56.5,43.2,30.28,South,174,3.0,5.0,61,0.00,,,0.00,WUHU21623XXSP,2013-01-23 08:13:00,
2013-01-23 02:15:00,56.5,43.2,30.28,SSE,159,3.0,5.0,61,0.00,,,0.00,WUHU21623XXSP,2013-01-23 08:15:00,
2013-01-23 02:16:00,56.5,43.4,30.28,SSE,168,2.0,5.0,61,0.00,,,0.00,WUHU21623XXSP,2013-01-23 08:16:00,
2013-01-23 02:18:00,56.5,43.2,30.28,South,180,2.0,5.0,61,0.00,,,0.00,WUHU21623XXSP,2013-01-23 08:18:00,
2013-01-23 02:20:00,56.5,43.2,30.28,South,169,3.0,5.0,61,0.00,,,0.00,WUHU21623XXSP,2013-01-23 08:20:00,
2013-01-23 02:22:00,56.5,43.2,30.28,South,179,3.0,5.0,61,0.00,,,0.00,WUHU21623XXSP,2013-01-23 08:22:00,
2013-01-23 02:23:00,56.5,43.2,30.28,South,175,2.0,5.0,61,0.00,,,0.00,WUHU21623XXSP,2013-01-23 08:23:00,
2013-01-23 02:25:00,56.5,43.2,30.28,SSE,157,6.0,6.0,61,0.00,,,0.00,WUHU21623XXSP,2013-01-23 08:25:00,
2013-01-23 02:27:00,56.5,43.2,30.28,South,174,3.0,6.0,61,0.00,,,0.00,WUHU21623XXSP,2013-01-23 08:27:00,
2013-01-23 02:28:00,56.5,43.2,30.28,South,180,4.0,6.0,61,0.00,,,0.00,WUHU21623XXSP,2013-01-23 08:28:00,
2013-01-23 02:30:00,56.5,43.6,30.29,SSE,157,3.0,6.0,62,0.00,,,0.00,WUHU21623XXSP,2013-01-23 08:30:00,
2013-01-23 02:32:00,56.5,43.6,30.29,South,176,4.0,6.0,62,0.00,,,0.00,WUHU21623XXSP,2013-01-23 08:32:00,
2013-01-23 02:33:00,56.5,43.6,30.29,South,180,4.0,6.0,62,0.00,,,0.00,WUHU21623XXSP,2013-01-23 08:33:00,
2013-01-23 02:36:00,56.3,43.4,30.29,South,183,4.0,6.0,62,0.00,,,0.00,WUHU21623XXSP,2013-01-23 08:36:00,
2013-01-23 02:37:00,56.3,43.4,30.29,South,169,4.0,6.0,62,0.00,,,0.00,WUHU21623XXSP,2013-01-23 08:37:00,
2013-01-23 02:38:00,56.3,43.4,30.29,SSE,167,4.0,6.0,62,0.00,,,0.00,WUHU21623XXSP,2013-01-23 08:38:00,
2013-01-23 02:42:00,56.3,43.4,30.29,SSW,212,3.0,6.0,62,0.00,,,0.00,WUHU21623XXSP,2013-01-23 08:42:00,
2013-01-23 02:43:00,56.3,43.4,30.29,South,191,2.0,6.0,62,0.00,,,0.00,WUHU21623XXSP,2013-01-23 08:43:00,
2013-01-23 02:47:00,56.1,43.3,30.29,South,180,2.0,5.0,62,0.00,,,0.00,WUHU21623XXSP,2013-01-23 08:47:00,
2013-01-23 02:48:00,56.1,43.3,30.29,South,180,3.0,4.0,62,0.00,,,0.00,WUHU21623XXSP,2013-01-23 08:48:00,
2013-01-23 02:52:00,56.1,43.6,30.29,SSW,205,5.0,6.0,63,0.00,,,0.00,WUHU21623XXSP,2013-01-23 08:52:00,
2013-01-23 02:53:00,56.1,43.6,30.29,South,171,3.0,6.0,63,0.00,,,0.00,WUHU21623XXSP,2013-01-23 08:53:00,
2013-01-23 02:54:00,56.1,43.6,30.29,South,176,3.0,6.0,63,0.00,,,0.00,WUHU21623XXSP,2013-01-23 08:54:00,
2013-01-23 02:57:00,56.1,43.6,30.29,SSW,197,4.0,6.0,63,0.00,,,0.00,WUHU21623XXSP,2013-01-23 08:57:00,
2013-01-23 02:58:00,56.1,43.6,30.29,SSW,193,4.0,6.0,63,0.00,,,0.00,WUHU21623XXSP,2013-01-23 08:58:00,
2013-01-23 02:59:00,56.1,43.6,30.29,South,189,4.0,6.0,63,0.00,,,0.00,WUHU21623XXSP,2013-01-23 08:59:00,
2013-01-23 03:02:00,55.9,43.5,30.29,South,177,4.0,7.0,63,0.00,,,0.00,WUHU21623XXSP,2013-01-23 09:02:00,
2013-01-23 03:03:00,55.9,43.5,30.29,South,177,4.0,7.0,63,0.00,,,0.00,WUHU21623XXSP,2013-01-23 09:03:00,
2013-01-23 03:04:00,55.9,43.5,30.29,South,182,3.0,7.0,63,0.00,,,0.00,WUHU21623XXSP,2013-01-23 09:04:00,
2013-01-23 03:07:00,55.9,43.5,30.29,South,188,3.0,7.0,63,0.00,,,0.00,WUHU21623XXSP,2013-01-23 09:07:00,
2013-01-23 03:08:00,55.9,43.5,30.29,SSE,157,1.0,7.0,63,0.00,,,0.00,WUHU21623XXSP,2013-01-23 09:08:00,
2013-01-23 03:09:00,55.9,43.5,30.29,SW,225,4.0,7.0,63,0.00,,,0.00,WUHU21623XXSP,2013-01-23 09:09:00,
2013-01-23 03:12:00,55.9,43.5,30.29,South,190,2.0,5.0,63,0.00,,,0.00,WUHU21623XXSP,2013-01-23 09:12:00,
2013-01-23 03:13:00,55.9,43.5,30.29,South,173,2.0,5.0,63,0.00,,,0.00,WUHU21623XXSP,2013-01-23 09:13:00,
2013-01-23 03:14:00,55.9,43.5,30.29,South,173,2.0,5.0,63,0.00,,,0.00,WUHU21623XXSP,2013-01-23 09:14:00,
2013-01-23 03:17:00,55.9,43.5,30.29,SSW,208,2.0,4.0,63,0.00,,,0.00,WUHU21623XXSP,2013-01-23 09:17:00,
2013-01-23 03:18:00,55.9,43.5,30.29,SSW,202,2.0,4.0,63,0.00,,,0.00,WUHU21623XXSP,2013-01-23 09:18:00,
2013-01-23 03:19:00,55.9,43.5,30.29,SSW,197,2.0,4.0,63,0.00,,,0.00,WUHU21623XXSP,2013-01-23 09:19:00,
2013-01-23 03:22:00,55.9,43.5,30.30,South,180,3.0,4.0,63,0.00,,,0.00,WUHU21623XXSP,2013-01-23 09:22:00,
2013-01-23 03:24:00,55.9,43.5,30.30,South,180,0.0,4.0,63,0.00,,,0.00,WUHU21623XXSP,2013-01-23 09:24:00,
2013-01-23 03:27:00,55.9,43.5,30.29,South,183,2.0,3.0,63,0.00,,,0.00,WUHU21623XXSP,2013-01-23 09:27:00,
2013-01-23 03:29:00,55.9,43.5,30.29,SSW,202,0.0,3.0,63,0.00,,,0.00,WUHU21623XXSP,2013-01-23 09:29:00,
2013-01-23 03:32:00,55.9,43.5,30.29,South,180,0.0,3.0,63,0.00,,,0.00,WUHU21623XXSP,2013-01-23 09:32:00,
2013-01-23 03:34:00,55.9,43.5,30.29,South,174,2.0,3.0,63,0.00,,,0.00,WUHU21623XXSP,2013-01-23 09:34:00,
2013-01-23 03:35:00,55.9,43.5,30.29,SSE,157,2.0,3.0,63,0.00,,,0.00,WUHU21623XXSP,2013-01-23 09:35:00,
2013-01-23 03:37:00,55.9,43.5,30.29,SSW,200,2.0,3.0,63,0.00,,,0.00,WUHU21623XXSP,2013-01-23 09:37:00,
2013-01-23 03:39:00,55.9,43.5,30.29,SSE,157,2.0,3.0,63,0.00,,,0.00,WUHU21623XXSP,2013-01-23 09:39:00,
2013-01-23 03:41:00,55.9,43.5,30.29,SE,135,0.0,3.0,63,0.00,,,0.00,WUHU21623XXSP,2013-01-23 09:41:00,
2013-01-23 03:43:00,55.9,43.5,30.29,SSW,202,3.0,3.0,63,0.00,,,0.00,WUHU21623XXSP,2013-01-23 09:43:00,
2013-01-23 03:44:00,55.9,43.5,30.29,SE,135,2.0,3.0,63,0.00,,,0.00,WUHU21623XXSP,2013-01-23 09:44:00,
2013-01-23 03:46:00,55.9,43.5,30.29,SE,135,1.0,3.0,63,0.00,,,0.00,WUHU21623XXSP,2013-01-23 09:46:00,
2013-01-23 03:48:00,55.9,43.5,30.29,SSW,202,2.0,3.0,63,0.00,,,0.00,WUHU21623XXSP,2013-01-23 09:48:00,
2013-01-23 03:49:00,55.9,43.5,30.29,SSW,202,2.0,3.0,63,0.00,,,0.00,WUHU21623XXSP,2013-01-23 09:49:00,
2013-01-23 03:50:00,55.9,43.5,30.29,SSW,202,2.0,3.0,63,0.00,,,0.00,WUHU21623XXSP,2013-01-23 09:50:00,
2013-01-23 03:51:00,55.9,43.5,30.29,South,175,2.0,3.0,63,0.00,,,0.00,WUHU21623XXSP,2013-01-23 09:51:00,
2013-01-23 03:53:00,55.9,43.5,30.29,South,180,2.0,3.0,63,0.00,,,0.00,WUHU21623XXSP,2013-01-23 09:53:00,
2013-01-23 03:55:00,55.9,43.5,30.29,SSW,207,2.0,3.0,63,0.00,,,0.00,WUHU21623XXSP,2013-01-23 09:55:00,
2013-01-23 03:56:00,55.9,43.5,30.29,SSW,195,2.0,3.0,63,0.00,,,0.00,WUHU21623XXSP,2013-01-23 09:56:00,
2013-01-23 03:58:00,55.9,43.5,30.29,SSW,202,0.0,3.0,63,0.00,,,0.00,WUHU21623XXSP,2013-01-23 09:58:00,
2013-01-23 03:59:00,55.9,43.5,30.29,SSW,202,0.0,3.0,63,0.00,,,0.00,WUHU21623XXSP,2013-01-23 09:59:00,
2013-01-23 04:00:00,55.9,43.5,30.29,South,180,0.0,3.0,63,0.00,,,0.00,WUHU21623XXSP,2013-01-23 10:00:00,
2013-01-23 04:02:00,55.9,43.5,30.29,South,180,2.0,2.0,63,0.00,,,0.00,WUHU21623XXSP,2013-01-23 10:02:00,
2013-01-23 04:03:00,55.9,43.5,30.30,South,180,3.0,3.0,63,0.00,,,0.00,WUHU21623XXSP,2013-01-23 10:03:00,
2013-01-23 04:04:00,55.9,43.5,30.30,SE,141,2.0,3.0,63,0.00,,,0.00,WUHU21623XXSP,2013-01-23 10:04:00,
2013-01-23 04:05:00,55.9,43.5,30.30,SSE,154,2.0,3.0,63,0.00,,,0.00,WUHU21623XXSP,2013-01-23 10:05:00,
2013-01-23 04:07:00,55.9,43.5,30.30,SSE,157,2.0,3.0,63,0.00,,,0.00,WUHU21623XXSP,2013-01-23 10:07:00,
2013-01-23 04:08:00,55.9,43.5,30.30,South,180,3.0,3.0,63,0.00,,,0.00,WUHU21623XXSP,2013-01-23 10:08:00,
2013-01-23 04:09:00,55.8,43.3,30.30,South,178,2.0,3.0,63,0.00,,,0.00,WUHU21623XXSP,2013-01-23 10:09:00,
2013-01-23 04:10:00,55.9,43.5,30.30,SSE,165,2.0,3.0,63,0.00,,,0.00,WUHU21623XXSP,2013-01-23 10:10:00,
2013-01-23 04:12:00,55.9,43.5,30.30,SSE,157,3.0,4.0,63,0.00,,,0.00,WUHU21623XXSP,2013-01-23 10:12:00,
2013-01-23 04:14:00,55.9,43.5,30.30,SSE,157,3.0,4.0,63,0.00,,,0.00,WUHU21623XXSP,2013-01-23 10:14:00,
2013-01-23 04:16:00,55.9,43.5,30.30,SSE,159,2.0,4.0,63,0.00,,,0.00,WUHU21623XXSP,2013-01-23 10:16:00,
2013-01-23 04:18:00,55.9,43.5,30.30,SSE,157,2.0,4.0,63,0.00,,,0.00,WUHU21623XXSP,2013-01-23 10:18:00,
2013-01-23 04:19:00,55.8,43.3,30.30,South,180,0.0,4.0,63,0.00,,,0.00,WUHU21623XXSP,2013-01-23 10:19:00,
2013-01-23 04:20:00,55.8,43.3,30.30,ESE,112,0.0,4.0,63,0.00,,,0.00,WUHU21623XXSP,2013-01-23 10:20:00,
2013-01-23 04:22:00,55.8,43.3,30.30,SSE,157,2.0,3.0,63,0.00,,,0.00,WUHU21623XXSP,2013-01-23 10:22:00,
2013-01-23 04:23:00,55.8,43.3,30.30,South,180,2.0,3.0,63,0.00,,,0.00,WUHU21623XXSP,2013-01-23 10:23:00,
2013-01-23 04:24:00,55.8,43.3,30.30,South,169,2.0,3.0,63,0.00,,,0.00,WUHU21623XXSP,2013-01-23 10:24:00,
2013-01-23 04:25:00,55.8,43.3,30.30,SSE,163,2.0,2.0,63,0.00,,,0.00,WUHU21623XXSP,2013-01-23 10:25:00,
2013-01-23 04:27:00,55.8,43.3,30.30,SSE,157,3.0,3.0,63,0.00,,,0.00,WUHU21623XXSP,2013-01-23 10:27:00,
2013-01-23 04:28:00,55.8,43.3,30.30,SSE,157,3.0,3.0,63,0.00,,,0.00,WUHU21623XXSP,2013-01-23 10:28:00,
2013-01-23 04:29:00,55.8,43.3,30.30,SSE,168,2.0,3.0,63,0.00,,,0.00,WUHU21623XXSP,2013-01-23 10:29:00,
2013-01-23 04:30:00,55.8,43.3,30.29,SSE,157,2.0,3.0,63,0.00,,,0.00,WUHU21623XXSP,2013-01-23 10:30:00,
2013-01-23 04:32:00,55.6,43.1,30.29,SSE,157,2.0,3.0,63,0.00,,,0.00,WUHU21623XXSP,2013-01-23 10:32:00,
2013-01-23 04:33:00,55.6,43.1,30.29,South,180,4.0,4.0,63,0.00,,,0.00,WUHU21623XXSP,2013-01-23 10:33:00,
2013-01-23 04:34:00,55.6,43.1,30.30,SSE,166,2.0,4.0,63,0.00,,,0.00,WUHU21623XXSP,2013-01-23 10:34:00,
2013-01-23 04:35:00,55.6,43.1,30.30,South,171,2.0,4.0,63,0.00,,,0.00,WUHU21623XXSP,2013-01-23 10:35:00,
2013-01-23 04:37:00,55.6,43.1,30.30,South,173,3.0,4.0,63,0.00,,,0.00,WUHU21623XXSP,2013-01-23 10:37:00,
2013-01-23 04:38:00,55.6,43.1,30.30,South,172,2.0,4.0,63,0.00,,,0.00,WUHU21623XXSP,2013-01-23 10:38:00,
2013-01-23 04:39:00,55.6,43.1,30.30,South,180,2.0,4.0,63,0.00,,,0.00,WUHU21623XXSP,2013-01-23 10:39:00,
2013-01-23 04:40:00,55.6,43.1,30.30,South,180,1.0,4.0,63,0.00,,,0.00,WUHU21623XXSP,2013-01-23 10:40:00,
2013-01-23 04:42:00,55.4,43.0,30.30,South,180,2.0,4.0,63,0.00,,,0.00,WUHU21623XXSP,2013-01-23 10:42:00,
2013-01-23 04:43:00,55.6,43.1,30.30,South,180,2.0,4.0,63,0.00,,,0.00,WUHU21623XXSP,2013-01-23 10:43:00,
2013-01-23 04:44:00,55.6,43.1,30.30,South,180,2.0,4.0,63,0.00,,,0.00,WUHU21623XXSP,2013-01-23 10:44:00,
2013-01-23 04:45:00,55.4,43.0,30.30,South,180,2.0,4.0,63,0.00,,,0.00,WUHU21623XXSP,2013-01-23 10:45:00,
2013-01-23 04:48:00,55.6,43.1,30.30,SSE,157,0.0,2.0,63,0.00,,,0.00,WUHU21623XXSP,2013-01-23 10:48:00,
2013-01-23 04:49:00,55.4,43.0,30.30,SSE,157,0.0,2.0,63,0.00,,,0.00,WUHU21623XXSP,2013-01-23 10:49:00,
2013-01-23 04:50:00,55.6,43.1,30.30,SSW,202,3.0,3.0,63,0.00,,,0.00,WUHU21623XXSP,2013-01-23 10:50:00,
2013-01-23 04:53:00,55.4,43.0,30.30,SSW,202,2.0,3.0,63,0.00,,,0.00,WUHU21623XXSP,2013-01-23 10:53:00,
2013-01-23 04:54:00,55.4,43.0,30.31,SSW,202,2.0,3.0,63,0.00,,,0.00,WUHU21623XXSP,2013-01-23 10:54:00,
2013-01-23 04:56:00,55.4,43.0,30.31,SSE,157,0.0,3.0,63,0.00,,,0.00,WUHU21623XXSP,2013-01-23 10:56:00,
2013-01-23 04:58:00,55.4,43.0,30.31,SSE,168,2.0,3.0,63,0.00,,,0.00,WUHU21623XXSP,2013-01-23 10:58:00,
2013-01-23 05:00:00,55.4,43.0,30.31,South,180,0.0,3.0,63,0.00,,,0.00,WUHU21623XXSP,2013-01-23 11:00:00,
2013-01-23 05:01:00,55.2,42.8,30.31,SSE,157,0.0,2.0,63,0.00,,,0.00,WUHU21623XXSP,2013-01-23 11:01:00,
2013-01-23 05:03:00,55.2,42.8,30.31,South,178,2.0,3.0,63,0.00,,,0.00,WUHU21623XXSP,2013-01-23 11:03:00,
2013-01-23 05:05:00,55.2,42.8,30.31,South,170,2.0,3.0,63,0.00,,,0.00,WUHU21623XXSP,2013-01-23 11:05:00,
2013-01-23 05:06:00,55.2,42.8,30.31,South,177,2.0,3.0,63,0.00,,,0.00,WUHU21623XXSP,2013-01-23 11:06:00,
2013-01-23 05:08:00,55.2,43.2,30.31,SSE,157,0.0,3.0,64,0.00,,,0.00,WUHU21623XXSP,2013-01-23 11:08:00,
2013-01-23 05:10:00,55.2,43.2,30.31,SSE,157,0.0,3.0,64,0.00,,,0.00,WUHU21623XXSP,2013-01-23 11:10:00,
2013-01-23 05:11:00,55.2,43.2,30.31,SSE,157,2.0,3.0,64,0.00,,,0.00,WUHU21623XXSP,2013-01-23 11:11:00,
2013-01-23 05:14:00,55.2,43.2,30.31,South,171,2.0,3.0,64,0.00,,,0.00,WUHU21623XXSP,2013-01-23 11:14:00,
2013-01-23 05:15:00,55.2,43.2,30.31,SSE,161,3.0,3.0,64,0.00,,,0.00,WUHU21623XXSP,2013-01-23 11:15:00,
2013-01-23 05:17:00,55.2,43.2,30.31,SSE,148,2.0,3.0,64,0.00,,,0.00,WUHU21623XXSP,2013-01-23 11:17:00,
2013-01-23 05:19:00,55.2,43.2,30.31,South,180,2.0,3.0,64,0.00,,,0.00,WUHU21623XXSP,2013-01-23 11:19:00,
2013-01-23 05:20:00,55.2,43.2,30.32,South,169,2.0,3.0,64,0.00,,,0.00,WUHU21623XXSP,2013-01-23 11:20:00,
2013-01-23 05:22:00,55.2,43.2,30.32,SSE,157,2.0,3.0,64,0.00,,,0.00,WUHU21623XXSP,2013-01-23 11:22:00,
2013-01-23 05:24:00,55.2,43.2,30.32,SSE,157,2.0,3.0,64,0.00,,,0.00,WUHU21623XXSP,2013-01-23 11:24:00,
2013-01-23 05:25:00,55.2,43.2,30.31,SSE,157,2.0,3.0,64,0.00,,,0.00,WUHU21623XXSP,2013-01-23 11:25:00,
2013-01-23 05:27:00,55.2,43.2,30.32,SSE,157,2.0,3.0,64,0.00,,,0.00,WUHU21623XXSP,2013-01-23 11:27:00,
2013-01-23 05:29:00,55.2,43.2,30.31,South,178,3.0,4.0,64,0.00,,,0.00,WUHU21623XXSP,2013-01-23 11:29:00,
2013-01-23 05:30:00,55.2,43.2,30.31,South,172,3.0,4.0,64,0.00,,,0.00,WUHU21623XXSP,2013-01-23 11:30:00,
2013-01-23 05:32:00,55.2,43.2,30.31,SSE,157,4.0,4.0,64,0.00,,,0.00,WUHU21623XXSP,2013-01-23 11:32:00,
2013-01-23 05:35:00,55.2,43.2,30.31,SSE,157,2.0,4.0,64,0.00,,,0.00,WUHU21623XXSP,2013-01-23 11:35:00,
2013-01-23 05:37:00,55.2,43.2,30.31,SSE,160,2.0,4.0,64,0.00,,,0.00,WUHU21623XXSP,2013-01-23 11:37:00,
2013-01-23 05:40:00,55.2,43.2,30.31,South,180,5.0,6.0,64,0.00,,,0.00,WUHU21623XXSP,2013-01-23 11:40:00,
2013-01-23 05:41:00,55.2,43.2,30.31,South,180,4.0,6.0,64,0.00,,,0.00,WUHU21623XXSP,2013-01-23 11:41:00,
2013-01-23 05:42:00,55.2,43.2,30.31,SSE,157,4.0,6.0,64,0.00,,,0.00,WUHU21623XXSP,2013-01-23 11:42:00,
2013-01-23 05:45:00,55.0,43.0,30.31,SSE,157,3.0,6.0,64,0.00,,,0.00,WUHU21623XXSP,2013-01-23 11:45:00,
2013-01-23 05:46:00,55.2,43.2,30.31,South,175,2.0,6.0,64,0.00,,,0.00,WUHU21623XXSP,2013-01-23 11:46:00,
2013-01-23 05:47:00,55.0,43.0,30.31,South,180,3.0,6.0,64,0.00,,,0.00,WUHU21623XXSP,2013-01-23 11:47:00,
2013-01-23 05:50:00,55.0,43.0,30.31,South,180,4.0,6.0,64,0.00,,,0.00,WUHU21623XXSP,2013-01-23 11:50:00,
2013-01-23 05:52:00,55.0,43.0,30.31,South,171,3.0,6.0,64,0.00,,,0.00,WUHU21623XXSP,2013-01-23 11:52:00,
2013-01-23 05:55:00,55.0,43.0,30.31,South,172,3.0,6.0,64,0.00,,,0.00,WUHU21623XXSP,2013-01-23 11:55:00,
2013-01-23 05:57:00,55.0,43.0,30.31,South,170,3.0,6.0,64,0.00,,,0.00,WUHU21623XXSP,2013-01-23 11:57:00,
2013-01-23 05:58:00,55.0,43.0,30.31,SSE,166,3.0,6.0,64,0.00,,,0.00,WUHU21623XXSP,2013-01-23 11:58:00,
2013-01-23 06:00:00,55.0,43.0,30.31,South,172,3.0,6.0,64,0.00,,,0.00,WUHU21623XXSP,2013-01-23 12:00:00,
2013-01-23 06:03:00,55.0,43.0,30.31,South,171,3.0,6.0,64,0.00,,,0.00,WUHU21623XXSP,2013-01-23 12:03:00,
2013-01-23 06:05:00,55.0,43.0,30.31,South,178,4.0,6.0,64,0.00,,,0.00,WUHU21623XXSP,2013-01-23 12:05:00,
2013-01-23 06:06:00,55.0,43.0,30.31,SSE,157,5.0,6.0,64,0.00,,,0.00,WUHU21623XXSP,2013-01-23 12:06:00,
2013-01-23 06:08:00,55.0,43.0,30.31,South,180,4.0,6.0,64,0.00,,,0.00,WUHU21623XXSP,2013-01-23 12:08:00,
2013-01-23 06:11:00,55.0,43.0,30.30,SSE,157,4.0,6.0,64,0.00,,,0.00,WUHU21623XXSP,2013-01-23 12:11:00,
2013-01-23 06:13:00,54.9,43.3,30.31,SSW,202,4.0,6.0,65,0.00,,,0.00,WUHU21623XXSP,2013-01-23 12:13:00,
2013-01-23 06:16:00,54.9,43.3,30.31,South,174,3.0,5.0,65,0.00,,,0.00,WUHU21623XXSP,2013-01-23 12:16:00,
2013-01-23 06:18:00,54.9,43.3,30.31,South,191,2.0,5.0,65,0.00,,,0.00,WUHU21623XXSP,2013-01-23 12:18:00,
2013-01-23 06:21:00,54.9,43.3,30.31,South,186,2.0,5.0,65,0.00,,,0.00,WUHU21623XXSP,2013-01-23 12:21:00,
2013-01-23 06:23:00,54.7,43.1,30.31,SSW,201,4.0,6.0,65,0.00,,,0.00,WUHU21623XXSP,2013-01-23 12:23:00,
2013-01-23 06:26:00,54.7,43.1,30.31,South,188,2.0,6.0,65,0.00,,,0.00,WUHU21623XXSP,2013-01-23 12:26:00,
2013-01-23 06:27:00,54.7,43.1,30.31,South,179,3.0,6.0,65,0.00,,,0.00,WUHU21623XXSP,2013-01-23 12:27:00,
2013-01-23 06:28:00,54.7,43.1,30.31,SE,135,4.0,6.0,65,0.00,,,0.00,WUHU21623XXSP,2013-01-23 12:28:00,
2013-01-23 06:31:00,54.7,43.1,30.32,South,182,2.0,6.0,65,0.00,,,0.00,WUHU21623XXSP,2013-01-23 12:31:00,
2013-01-23 06:32:00,54.7,43.1,30.31,SSE,157,2.0,6.0,65,0.00,,,0.00,WUHU21623XXSP,2013-01-23 12:32:00,
2013-01-23 06:33:00,54.7,43.1,30.31,South,181,2.0,6.0,65,0.00,,,0.00,WUHU21623XXSP,2013-01-23 12:33:00,
2013-01-23 06:34:00,54.7,43.1,30.31,SE,135,3.0,6.0,65,0.00,,,0.00,WUHU21623XXSP,2013-01-23 12:34:00,
2013-01-23 06:36:00,54.7,43.1,30.31,SSE,157,2.0,6.0,65,0.00,,,0.00,WUHU21623XXSP,2013-01-23 12:36:00,
2013-01-23 06:37:00,54.7,43.1,30.31,South,176,2.0,5.0,65,0.00,,,0.00,WUHU21623XXSP,2013-01-23 12:37:00,
2013-01-23 06:39:00,54.7,43.1,30.31,SSE,157,3.0,5.0,65,0.00,,,0.00,WUHU21623XXSP,2013-01-23 12:39:00,
2013-01-23 06:41:00,54.7,43.1,30.31,SSW,200,3.0,5.0,65,0.00,,,0.00,WUHU21623XXSP,2013-01-23 12:41:00,
2013-01-23 06:42:00,54.7,43.1,30.31,South,183,3.0,5.0,65,0.00,,,0.00,WUHU21623XXSP,2013-01-23 12:42:00,
2013-01-23 06:44:00,54.7,43.1,30.31,South,173,3.0,5.0,65,0.00,,,0.00,WUHU21623XXSP,2013-01-23 12:44:00,
2013-01-23 06:47:00,54.7,43.1,30.32,South,180,3.0,5.0,65,0.00,,,0.00,WUHU21623XXSP,2013-01-23 12:47:00,
2013-01-23 06:48:00,54.7,43.1,30.32,SSE,157,3.0,5.0,65,0.00,,,0.00,WUHU21623XXSP,2013-01-23 12:48:00,
2013-01-23 06:49:00,54.7,43.1,30.32,South,178,2.0,5.0,65,0.00,,,0.00,WUHU21623XXSP,2013-01-23 12:49:00,
2013-01-23 06:53:00,54.5,43.3,30.32,SSE,157,3.0,5.0,66,0.00,,,0.00,WUHU21623XXSP,2013-01-23 12:53:00,
2013-01-23 06:54:00,54.5,43.3,30.32,South,186,3.0,5.0,66,0.00,,,0.00,WUHU21623XXSP,2013-01-23 12:54:00,
2013-01-23 06:58:00,54.5,43.3,30.32,SW,225,4.0,5.0,66,0.00,,,0.00,WUHU21623XXSP,2013-01-23 12:58:00,
2013-01-23 06:59:00,54.5,43.3,30.31,South,185,3.0,5.0,66,0.00,,,0.00,WUHU21623XXSP,2013-01-23 12:59:00,
2013-01-23 07:00:00,54.5,43.3,30.32,SSW,202,3.0,5.0,66,0.00,,,0.00,WUHU21623XXSP,2013-01-23 13:00:00,
2013-01-23 07:03:00,54.5,43.3,30.31,South,178,3.0,5.0,66,0.00,,,0.00,WUHU21623XXSP,2013-01-23 13:03:00,
2013-01-23 07:04:00,54.7,43.5,30.32,South,181,2.0,4.0,66,0.00,,,0.00,WUHU21623XXSP,2013-01-23 13:04:00,
2013-01-23 07:05:00,54.7,43.5,30.32,SSE,157,5.0,5.0,66,0.00,,,0.00,WUHU21623XXSP,2013-01-23 13:05:00,
2013-01-23 07:06:00,54.7,43.5,30.32,South,189,3.0,5.0,66,0.00,,,0.00,WUHU21623XXSP,2013-01-23 13:06:00,
2013-01-23 07:08:00,54.7,43.5,30.32,SSW,202,5.0,5.0,66,0.00,,,0.00,WUHU21623XXSP,2013-01-23 13:08:00,
2013-01-23 07:09:00,54.7,43.5,30.31,SSW,192,4.0,5.0,66,0.00,,,0.00,WUHU21623XXSP,2013-01-23 13:09:00,
2013-01-23 07:10:00,54.7,43.5,30.31,South,180,6.0,6.0,66,0.00,,,0.00,WUHU21623XXSP,2013-01-23 13:10:00,
2013-01-23 07:11:00,54.7,43.5,30.31,South,170,4.0,6.0,66,0.00,,,0.00,WUHU21623XXSP,2013-01-23 13:11:00,
2013-01-23 07:13:00,54.7,43.5,30.32,SSE,168,3.0,6.0,66,0.00,,,0.00,WUHU21623XXSP,2013-01-23 13:13:00,
2013-01-23 07:14:00,54.7,43.5,30.32,South,180,3.0,6.0,66,0.00,,,0.00,WUHU21623XXSP,2013-01-23 13:14:00,
2013-01-23 07:15:00,54.7,43.5,30.32,SSE,168,3.0,6.0,66,0.00,,,0.00,WUHU21623XXSP,2013-01-23 13:15:00,
2013-01-23 07:16:00,54.7,43.5,30.32,South,180,3.0,6.0,66,0.00,,,0.00,WUHU21623XXSP,2013-01-23 13:16:00,
2013-01-23 07:18:00,54.7,43.5,30.32,SSE,167,2.0,6.0,66,0.00,,,0.00,WUHU21623XXSP,2013-01-23 13:18:00,
2013-01-23 07:19:00,54.7,43.5,30.32,South,182,3.0,6.0,66,0.00,,,0.00,WUHU21623XXSP,2013-01-23 13:19:00,
2013-01-23 07:20:00,54.7,43.5,30.32,SSW,192,3.0,6.0,66,0.00,,,0.00,WUHU21623XXSP,2013-01-23 13:20:00,
2013-01-23 07:21:00,54.7,43.5,30.32,SSW,195,2.0,6.0,66,0.00,,,0.00,WUHU21623XXSP,2013-01-23 13:21:00,
2013-01-23 07:23:00,54.7,43.5,30.32,South,178,2.0,4.0,66,0.00,,,0.00,WUHU21623XXSP,2013-01-23 13:23:00,
2013-01-23 07:24:00,54.7,43.5,30.32,SSE,157,3.0,5.0,66,0.00,,,0.00,WUHU21623XXSP,2013-01-23 13:24:00,
2013-01-23 07:25:00,54.7,43.5,30.32,SSE,157,4.0,5.0,66,0.00,,,0.00,WUHU21623XXSP,2013-01-23 13:25:00,
2013-01-23 07:26:00,54.7,43.5,30.32,South,191,2.0,5.0,66,0.00,,,0.00,WUHU21623XXSP,2013-01-23 13:26:00,
2013-01-23 07:28:00,54.7,43.5,30.32,SSE,165,2.0,5.0,66,0.00,,,0.00,WUHU21623XXSP,2013-01-23 13:28:00,
2013-01-23 07:29:00,54.7,43.5,30.32,SSE,158,2.0,5.0,66,0.00,,,0.00,WUHU21623XXSP,2013-01-23 13:29:00,
2013-01-23 07:30:00,54.7,43.5,30.32,South,175,2.0,5.0,66,0.00,,,0.00,WUHU21623XXSP,2013-01-23 13:30:00,
2013-01-23 07:31:00,54.7,43.5,30.32,South,180,3.0,5.0,66,0.00,,,0.00,WUHU21623XXSP,2013-01-23 13:31:00,
2013-01-23 07:33:00,54.7,43.5,30.32,SSE,161,2.0,4.0,66,0.00,,,0.00,WUHU21623XXSP,2013-01-23 13:33:00,
2013-01-23 07:34:00,54.7,43.5,30.32,SSE,157,3.0,4.0,66,0.00,,,0.00,WUHU21623XXSP,2013-01-23 13:34:00,
2013-01-23 07:35:00,54.7,43.5,30.32,SSE,164,3.0,3.0,66,0.00,,,0.00,WUHU21623XXSP,2013-01-23 13:35:00,
2013-01-23 07:36:00,54.7,43.5,30.32,South,170,2.0,3.0,66,0.00,,,0.00,WUHU21623XXSP,2013-01-23 13:36:00,
2013-01-23 07:38:00,54.7,43.5,30.32,South,174,2.0,3.0,66,0.00,,,0.00,WUHU21623XXSP,2013-01-23 13:38:00,
2013-01-23 07:39:00,54.7,43.5,30.32,SSE,167,1.0,3.0,66,0.00,,,0.00,WUHU21623XXSP,2013-01-23 13:39:00,
2013-01-23 07:40:00,54.7,43.5,30.32,South,180,2.0,3.0,66,0.00,,,0.00,WUHU21623XXSP,2013-01-23 13:40:00,
2013-01-23 07:41:00,54.7,43.5,30.32,SSE,167,2.0,3.0,66,0.00,,,0.00,WUHU21623XXSP,2013-01-23 13:41:00,
2013-01-23 07:43:00,54.7,43.5,30.32,SSE,167,2.0,3.0,66,0.00,,,0.00,WUHU21623XXSP,2013-01-23 13:43:00,
2013-01-23 07:44:00,54.7,43.5,30.32,SW,225,2.0,3.0,66,0.00,,,0.00,WUHU21623XXSP,2013-01-23 13:44:00,
2013-01-23 07:46:00,54.7,43.5,30.32,South,177,2.0,3.0,66,0.00,,,0.00,WUHU21623XXSP,2013-01-23 13:46:00,
2013-01-23 07:48:00,54.7,43.5,30.32,South,180,3.0,4.0,66,0.00,,,0.00,WUHU21623XXSP,2013-01-23 13:48:00,
2013-01-23 07:50:00,54.7,43.5,30.32,South,175,2.0,4.0,66,0.00,,,0.00,WUHU21623XXSP,2013-01-23 13:50:00,
2013-01-23 07:51:00,54.7,43.5,30.32,SSW,192,3.0,5.0,66,0.00,,,0.00,WUHU21623XXSP,2013-01-23 13:51:00,
2013-01-23 07:54:00,54.9,43.7,30.32,SW,216,3.0,5.0,66,0.00,,,0.00,WUHU21623XXSP,2013-01-23 13:54:00,
2013-01-23 07:55:00,54.7,43.5,30.32,SW,216,2.0,5.0,66,0.00,,,0.00,WUHU21623XXSP,2013-01-23 13:55:00,
2013-01-23 07:56:00,54.9,43.7,30.32,SSW,196,2.0,5.0,66,0.00,,,0.00,WUHU21623XXSP,2013-01-23 13:56:00,
2013-01-23 07:59:00,54.9,43.7,30.32,SSW,202,2.0,5.0,66,0.00,,,0.00,WUHU21623XXSP,2013-01-23 13:59:00,
2013-01-23 08:00:00,54.9,43.7,30.32,South,180,3.0,5.0,66,0.00,,,0.00,WUHU21623XXSP,2013-01-23 14:00:00,
2013-01-23 08:01:00,54.9,43.7,30.32,South,180,3.0,5.0,66,0.00,,,0.00,WUHU21623XXSP,2013-01-23 14:01:00,
2013-01-23 08:04:00,55.0,43.8,30.33,South,180,3.0,4.0,66,0.00,,,0.00,WUHU21623XXSP,2013-01-23 14:04:00,
2013-01-23 08:05:00,54.9,43.7,30.33,South,178,2.0,4.0,66,0.00,,,0.00,WUHU21623XXSP,2013-01-23 14:05:00,
2013-01-23 08:06:00,55.0,43.8,30.33,South,185,2.0,4.0,66,0.00,,,0.00,WUHU21623XXSP,2013-01-23 14:06:00,
2013-01-23 08:09:00,55.0,43.8,30.32,South,180,3.0,4.0,66,0.00,,,0.00,WUHU21623XXSP,2013-01-23 14:09:00,
2013-01-23 08:10:00,55.0,43.8,30.32,SSW,201,3.0,5.0,66,0.00,,,0.00,WUHU21623XXSP,2013-01-23 14:10:00,
2013-01-23 08:11:00,55.0,43.8,30.32,South,190,3.0,5.0,66,0.00,,,0.00,WUHU21623XXSP,2013-01-23 14:11:00,
2013-01-23 08:12:00,55.0,43.8,30.33,South,180,3.0,5.0,66,0.00,,,0.00,WUHU21623XXSP,2013-01-23 14:12:00,
2013-01-23 08:14:00,55.0,43.8,30.33,South,180,2.0,5.0,66,0.00,,,0.00,WUHU21623XXSP,2013-01-23 14:14:00,
2013-01-23 08:15:00,55.0,43.8,30.33,South,180,3.0,5.0,66,0.00,,,0.00,WUHU21623XXSP,2013-01-23 14:15:00,
2013-01-23 08:16:00,55.0,44.3,30.33,South,188,3.0,5.0,67,0.00,,,0.00,WUHU21623XXSP,2013-01-23 14:16:00,
2013-01-23 08:17:00,55.0,43.8,30.33,SSW,194,3.0,5.0,66,0.00,,,0.00,WUHU21623XXSP,2013-01-23 14:17:00,
2013-01-23 08:19:00,55.0,44.3,30.33,South,183,2.0,5.0,67,0.00,,,0.00,WUHU21623XXSP,2013-01-23 14:19:00,
2013-01-23 08:21:00,55.0,44.3,30.33,South,179,2.0,5.0,67,0.00,,,0.00,WUHU21623XXSP,2013-01-23 14:21:00,
2013-01-23 08:22:00,55.0,44.3,30.33,South,180,3.0,5.0,67,0.00,,,0.00,WUHU21623XXSP,2013-01-23 14:22:00,
2013-01-23 08:24:00,55.0,44.3,30.33,South,191,3.0,6.0,67,0.00,,,0.00,WUHU21623XXSP,2013-01-23 14:24:00,
2013-01-23 08:26:00,55.0,44.3,30.33,South,191,3.0,6.0,67,0.00,,,0.00,WUHU21623XXSP,2013-01-23 14:26:00,
2013-01-23 08:27:00,55.0,44.3,30.33,South,180,4.0,6.0,67,0.00,,,0.00,WUHU21623XXSP,2013-01-23 14:27:00,
2013-01-23 08:29:00,55.0,44.3,30.33,South,183,3.0,7.0,67,0.00,,,0.00,WUHU21623XXSP,2013-01-23 14:29:00,
2013-01-23 08:31:00,55.0,44.3,30.33,SSE,157,6.0,7.0,67,0.00,,,0.00,WUHU21623XXSP,2013-01-23 14:31:00,
2013-01-23 08:32:00,55.0,44.3,30.33,SSW,193,3.0,7.0,67,0.00,,,0.00,WUHU21623XXSP,2013-01-23 14:32:00,
2013-01-23 08:35:00,55.0,44.3,30.33,South,180,5.0,7.0,67,0.00,,,0.00,WUHU21623XXSP,2013-01-23 14:35:00,
2013-01-23 08:36:00,55.0,44.3,30.33,South,180,3.0,7.0,67,0.00,,,0.00,WUHU21623XXSP,2013-01-23 14:36:00,
2013-01-23 08:38:00,55.0,44.3,30.33,South,170,4.0,7.0,67,0.00,,,0.00,WUHU21623XXSP,2013-01-23 14:38:00,
2013-01-23 08:40:00,55.0,44.3,30.33,SSW,200,4.0,6.0,67,0.00,,,0.00,WUHU21623XXSP,2013-01-23 14:40:00,
2013-01-23 08:41:00,55.0,44.3,30.33,South,184,3.0,6.0,67,0.00,,,0.00,WUHU21623XXSP,2013-01-23 14:41:00,
2013-01-23 08:43:00,55.0,44.3,30.33,South,183,3.0,6.0,67,0.00,,,0.00,WUHU21623XXSP,2013-01-23 14:43:00,
2013-01-23 08:45:00,55.2,44.4,30.33,SSE,162,3.0,6.0,67,0.00,,,0.00,WUHU21623XXSP,2013-01-23 14:45:00,
2013-01-23 08:46:00,55.2,44.9,30.33,South,180,3.0,8.0,68,0.00,,,0.00,WUHU21623XXSP,2013-01-23 14:46:00,
2013-01-23 08:47:00,55.2,44.9,30.33,South,184,3.0,8.0,68,0.00,,,0.00,WUHU21623XXSP,2013-01-23 14:47:00,
2013-01-23 08:48:00,55.2,44.9,30.33,SSW,205,3.0,8.0,68,0.00,,,0.00,WUHU21623XXSP,2013-01-23 14:48:00,
2013-01-23 08:50:00,55.2,44.9,30.33,South,180,4.0,8.0,68,0.00,,,0.00,WUHU21623XXSP,2013-01-23 14:50:00,
2013-01-23 08:51:00,55.2,44.9,30.33,South,180,5.0,8.0,68,0.00,,,0.00,WUHU21623XXSP,2013-01-23 14:51:00,
2013-01-23 08:52:00,55.2,44.9,30.33,South,184,3.0,8.0,68,0.00,,,0.00,WUHU21623XXSP,2013-01-23 14:52:00,
2013-01-23 08:53:00,55.2,44.9,30.33,South,180,4.0,8.0,68,0.00,,,0.00,WUHU21623XXSP,2013-01-23 14:53:00,
2013-01-23 08:55:00,55.2,44.9,30.33,South,169,4.0,8.0,68,0.00,,,0.00,WUHU21623XXSP,2013-01-23 14:55:00,
2013-01-23 08:57:00,55.4,45.0,30.34,South,188,3.0,7.0,68,0.00,,,0.00,WUHU21623XXSP,2013-01-23 14:57:00,
2013-01-23 08:58:00,55.4,45.0,30.33,SE,135,6.0,7.0,68,0.00,,,0.00,WUHU21623XXSP,2013-01-23 14:58:00,
2013-01-23 09:00:00,55.6,45.2,30.33,South,175,4.0,7.0,68,0.00,,,0.00,WUHU21623XXSP,2013-01-23 15:00:00,
2013-01-23 09:02:00,55.6,45.2,30.33,SSE,157,4.0,7.0,68,0.00,,,0.00,WUHU21623XXSP,2013-01-23 15:02:00,
2013-01-23 09:03:00,55.6,45.2,30.33,South,180,4.0,7.0,68,0.00,,,0.00,WUHU21623XXSP,2013-01-23 15:03:00,
2013-01-23 09:06:00,55.6,45.2,30.33,South,175,4.0,7.0,68,0.00,,,0.00,WUHU21623XXSP,2013-01-23 15:06:00,
2013-01-23 09:07:00,55.6,45.6,30.33,SSE,161,4.0,7.0,69,0.00,,,0.00,WUHU21623XXSP,2013-01-23 15:07:00,
2013-01-23 09:08:00,55.6,45.6,30.33,South,177,5.0,7.0,69,0.00,,,0.00,WUHU21623XXSP,2013-01-23 15:08:00,
2013-01-23 09:11:00,55.8,45.8,30.34,SSE,157,6.0,9.0,69,0.00,,,0.00,WUHU21623XXSP,2013-01-23 15:11:00,
2013-01-23 09:12:00,55.8,45.8,30.34,South,189,2.0,9.0,69,0.00,,,0.00,WUHU21623XXSP,2013-01-23 15:12:00,
2013-01-23 09:13:00,55.9,45.9,30.34,SSE,157,3.0,9.0,69,0.00,,,0.00,WUHU21623XXSP,2013-01-23 15:13:00,
2013-01-23 09:16:00,55.9,45.9,30.34,SSE,157,6.0,9.0,69,0.00,,,0.00,WUHU21623XXSP,2013-01-23 15:16:00,
2013-01-23 09:17:00,55.9,45.9,30.34,SSE,157,3.0,9.0,69,0.00,,,0.00,WUHU21623XXSP,2013-01-23 15:17:00,
2013-01-23 09:18:00,55.9,45.9,30.34,SE,135,7.0,9.0,69,0.00,,,0.00,WUHU21623XXSP,2013-01-23 15:18:00,
2013-01-23 09:19:00,55.9,45.9,30.34,SSE,157,8.0,8.0,69,0.00,,,0.00,WUHU21623XXSP,2013-01-23 15:19:00,
2013-01-23 09:21:00,55.9,46.3,30.34,SSW,201,4.0,9.0,70,0.00,,,0.00,WUHU21623XXSP,2013-01-23 15:21:00,
2013-01-23 09:22:00,55.9,46.3,30.34,SSW,202,6.0,9.0,70,0.00,,,0.00,WUHU21623XXSP,2013-01-23 15:22:00,
2013-01-23 09:23:00,56.1,46.5,30.34,South,180,5.0,9.0,70,0.00,,,0.00,WUHU21623XXSP,2013-01-23 15:23:00,
2013-01-23 09:24:00,56.1,46.5,30.34,South,180,5.0,9.0,70,0.00,,,0.00,WUHU21623XXSP,2013-01-23 15:24:00,
2013-01-23 09:26:00,56.1,46.5,30.34,South,182,3.0,9.0,70,0.00,,,0.00,WUHU21623XXSP,2013-01-23 15:26:00,
2013-01-23 09:27:00,56.1,46.5,30.34,SSE,164,4.0,9.0,70,0.00,,,0.00,WUHU21623XXSP,2013-01-23 15:27:00,
2013-01-23 09:28:00,56.1,46.5,30.34,South,183,5.0,9.0,70,0.00,,,0.00,WUHU21623XXSP,2013-01-23 15:28:00,
2013-01-23 09:29:00,56.3,46.7,30.34,South,180,7.0,9.0,70,0.00,,,0.00,WUHU21623XXSP,2013-01-23 15:29:00,
2013-01-23 09:31:00,56.3,46.7,30.34,SSE,167,6.0,9.0,70,0.00,,,0.00,WUHU21623XXSP,2013-01-23 15:31:00,
2013-01-23 09:32:00,56.3,46.7,30.34,South,176,4.0,9.0,70,0.00,,,0.00,WUHU21623XXSP,2013-01-23 15:32:00,
2013-01-23 09:33:00,56.5,46.8,30.34,South,181,5.0,9.0,70,0.00,,,0.00,WUHU21623XXSP,2013-01-23 15:33:00,
2013-01-23 09:35:00,56.5,46.8,30.34,South,180,5.0,9.0,70,0.00,,,0.00,WUHU21623XXSP,2013-01-23 15:35:00,
2013-01-23 09:36:00,56.5,46.8,30.33,SSE,166,4.0,9.0,70,0.00,,,0.00,WUHU21623XXSP,2013-01-23 15:36:00,
2013-01-23 09:37:00,56.5,46.8,30.33,South,169,4.0,9.0,70,0.00,,,0.00,WUHU21623XXSP,2013-01-23 15:37:00,
2013-01-23 09:38:00,56.5,46.8,30.33,SSE,157,9.0,9.0,70,0.00,,,0.00,WUHU21623XXSP,2013-01-23 15:38:00,
2013-01-23 09:40:00,56.8,47.2,30.33,South,181,4.0,10.0,70,0.00,,,0.00,WUHU21623XXSP,2013-01-23 15:40:00,
2013-01-23 09:42:00,56.8,47.2,30.33,SSE,167,4.0,10.0,70,0.00,,,0.00,WUHU21623XXSP,2013-01-23 15:42:00,
2013-01-23 09:43:00,56.8,47.2,30.33,South,177,6.0,10.0,70,0.00,,,0.00,WUHU21623XXSP,2013-01-23 15:43:00,
2013-01-23 09:45:00,57.0,47.3,30.34,South,181,7.0,11.0,70,0.00,,,0.00,WUHU21623XXSP,2013-01-23 15:45:00,
2013-01-23 09:47:00,57.0,47.3,30.34,SE,135,5.0,11.0,70,0.00,,,0.00,WUHU21623XXSP,2013-01-23 15:47:00,
2013-01-23 09:49:00,57.0,47.3,30.34,SSW,202,6.0,11.0,70,0.00,,,0.00,WUHU21623XXSP,2013-01-23 15:49:00,
2013-01-23 09:50:00,57.0,47.3,30.34,South,178,4.0,11.0,70,0.00,,,0.00,WUHU21623XXSP,2013-01-23 15:50:00,
2013-01-23 09:52:00,57.4,47.7,30.35,SSW,202,7.0,11.0,70,0.00,,,0.00,WUHU21623XXSP,2013-01-23 15:52:00,
2013-01-23 09:53:00,57.4,47.7,30.35,SSW,197,4.0,11.0,70,0.00,,,0.00,WUHU21623XXSP,2013-01-23 15:53:00,
2013-01-23 09:54:00,57.4,48.0,30.35,SSE,167,3.0,11.0,71,0.00,,,0.00,WUHU21623XXSP,2013-01-23 15:54:00,
2013-01-23 09:55:00,57.4,48.0,30.35,SSW,202,6.0,7.0,71,0.00,,,0.00,WUHU21623XXSP,2013-01-23 15:55:00,
2013-01-23 09:57:00,57.6,48.2,30.35,SSW,198,4.0,7.0,71,0.00,,,0.00,WUHU21623XXSP,2013-01-23 15:57:00,
2013-01-23 09:58:00,57.6,48.2,30.35,South,178,3.0,7.0,71,0.00,,,0.00,WUHU21623XXSP,2013-01-23 15:58:00,
2013-01-23 09:59:00,57.7,48.4,30.35,South,181,4.0,7.0,71,0.00,,,0.00,WUHU21623XXSP,2013-01-23 15:59:00,
2013-01-23 10:01:00,57.7,48.4,30.34,South,184,5.0,7.0,71,0.00,,,0.00,WUHU21623XXSP,2013-01-23 16:01:00,
2013-01-23 10:02:00,57.9,48.6,30.34,South,180,4.0,7.0,71,0.00,,,0.00,WUHU21623XXSP,2013-01-23 16:02:00,
2013-01-23 10:03:00,57.9,48.6,30.34,SSE,157,9.0,9.0,71,0.00,,,0.00,WUHU21623XXSP,2013-01-23 16:03:00,
2013-01-23 10:04:00,57.9,48.6,30.34,SSW,202,7.0,9.0,71,0.00,,,0.00,WUHU21623XXSP,2013-01-23 16:04:00,
2013-01-23 10:06:00,57.9,48.6,30.34,SSW,210,6.0,9.0,71,0.00,,,0.00,WUHU21623XXSP,2013-01-23 16:06:00,
2013-01-23 10:08:00,58.1,48.7,30.34,SSW,195,5.0,9.0,71,0.00,,,0.00,WUHU21623XXSP,2013-01-23 16:08:00,
2013-01-23 10:09:00,58.3,48.9,30.34,SSE,165,4.0,9.0,71,0.00,,,0.00,WUHU21623XXSP,2013-01-23 16:09:00,
2013-01-23 10:12:00,58.3,48.9,30.34,South,188,4.0,9.0,71,0.00,,,0.00,WUHU21623XXSP,2013-01-23 16:12:00,
2013-01-23 10:13:00,58.5,49.1,30.34,South,180,10.0,10.0,71,0.00,,,0.00,WUHU21623XXSP,2013-01-23 16:13:00,
2013-01-23 10:15:00,58.6,49.3,30.34,South,175,7.0,12.0,71,0.00,,,0.00,WUHU21623XXSP,2013-01-23 16:15:00,
2013-01-23 10:17:00,58.8,49.5,30.34,East,90,6.0,12.0,71,0.00,,,0.00,WUHU21623XXSP,2013-01-23 16:17:00,
2013-01-23 10:18:00,58.8,49.5,30.34,SE,135,11.0,12.0,71,0.00,,,0.00,WUHU21623XXSP,2013-01-23 16:18:00,
2013-01-23 10:20:00,58.8,49.5,30.34,SSE,165,6.0,12.0,71,0.00,,,0.00,WUHU21623XXSP,2013-01-23 16:20:00,
2013-01-23 10:23:00,58.8,49.1,30.34,South,177,6.0,12.0,70,0.00,,,0.00,WUHU21623XXSP,2013-01-23 16:23:00,
2013-01-23 10:25:00,58.8,49.1,30.34,South,176,5.0,11.0,70,0.00,,,0.00,WUHU21623XXSP,2013-01-23 16:25:00,
2013-01-23 10:28:00,59.4,49.6,30.34,SSE,168,5.0,11.0,70,0.00,,,0.00,WUHU21623XXSP,2013-01-23 16:28:00,
2013-01-23 10:30:00,59.5,49.8,30.34,South,184,6.0,11.0,70,0.00,,,0.00,WUHU21623XXSP,2013-01-23 16:30:00,
2013-01-23 10:33:00,59.7,50.0,30.34,SSE,165,5.0,11.0,70,0.00,,,0.00,WUHU21623XXSP,2013-01-23 16:33:00,
2013-01-23 10:35:00,59.9,50.2,30.35,SSE,157,7.0,10.0,70,0.00,,,0.00,WUHU21623XXSP,2013-01-23 16:35:00,
2013-01-23 10:38:00,59.9,50.2,30.34,South,190,4.0,10.0,70,0.00,,,0.00,WUHU21623XXSP,2013-01-23 16:38:00,
2013-01-23 10:40:00,60.1,50.4,30.35,South,180,6.0,10.0,70,0.00,,,0.00,WUHU21623XXSP,2013-01-23 16:40:00,
2013-01-23 10:43:00,60.4,50.7,30.35,South,175,6.0,13.0,70,0.00,,,0.00,WUHU21623XXSP,2013-01-23 16:43:00,
2013-01-23 10:44:00,60.4,50.7,30.35,SSE,157,7.0,13.0,70,0.00,,,0.00,WUHU21623XXSP,2013-01-23 16:44:00,
2013-01-23 10:46:00,60.6,50.9,30.35,SE,135,6.0,13.0,70,0.00,,,0.00,WUHU21623XXSP,2013-01-23 16:46:00,
2013-01-23 10:48:00,61.0,51.2,30.35,South,179,6.0,13.0,70,0.00,,,0.00,WUHU21623XXSP,2013-01-23 16:48:00,
2013-01-23 10:49:00,61.0,51.2,30.35,SSW,195,5.0,13.0,70,0.00,,,0.00,WUHU21623XXSP,2013-01-23 16:49:00,
2013-01-23 10:51:00,61.2,51.4,30.34,SSW,202,12.0,13.0,70,0.00,,,0.00,WUHU21623XXSP,2013-01-23 16:51:00,
2013-01-23 10:54:00,61.3,51.6,30.35,SSE,157,5.0,12.0,70,0.00,,,0.00,WUHU21623XXSP,2013-01-23 16:54:00,
2013-01-23 10:56:00,61.5,51.3,30.35,South,186,6.0,12.0,69,0.00,,,0.00,WUHU21623XXSP,2013-01-23 16:56:00,
2013-01-23 10:59:00,61.7,51.5,30.34,South,174,6.0,12.0,69,0.00,,,0.00,WUHU21623XXSP,2013-01-23 16:59:00,
2013-01-23 11:01:00,61.9,51.6,30.35,SSE,157,14.0,14.0,69,0.00,,,0.00,WUHU21623XXSP,2013-01-23 17:01:00,
2013-01-23 11:04:00,62.1,51.8,30.34,South,173,5.0,14.0,69,0.00,,,0.00,WUHU21623XXSP,2013-01-23 17:04:00,
2013-01-23 11:06:00,62.2,51.5,30.34,South,169,5.0,14.0,68,0.00,,,0.00,WUHU21623XXSP,2013-01-23 17:06:00,
2013-01-23 11:09:00,62.4,51.7,30.33,SSW,202,10.0,14.0,68,0.00,,,0.00,WUHU21623XXSP,2013-01-23 17:09:00,
2013-01-23 11:10:00,62.4,51.7,30.33,South,189,7.0,14.0,68,0.00,,,0.00,WUHU21623XXSP,2013-01-23 17:10:00,
2013-01-23 11:11:00,62.4,51.7,30.33,South,188,8.0,11.0,68,0.00,,,0.00,WUHU21623XXSP,2013-01-23 17:11:00,
2013-01-23 11:14:00,62.8,52.0,30.33,West,270,8.0,11.0,68,0.00,,,0.00,WUHU21623XXSP,2013-01-23 17:14:00,
2013-01-23 11:15:00,62.8,52.0,30.33,West,270,8.0,11.0,68,0.00,,,0.00,WUHU21623XXSP,2013-01-23 17:15:00,
2013-01-23 11:17:00,63.0,52.2,30.33,South,180,11.0,11.0,68,0.00,,,0.00,WUHU21623XXSP,2013-01-23 17:17:00,
2013-01-23 11:19:00,63.1,52.4,30.33,SSW,202,9.0,13.0,68,0.00,,,0.00,WUHU21623XXSP,2013-01-23 17:19:00,
2013-01-23 11:21:00,63.1,52.4,30.33,South,180,8.0,13.0,68,0.00,,,0.00,WUHU21623XXSP,2013-01-23 17:21:00,
2013-01-23 11:22:00,63.3,52.6,30.33,WSW,247,8.0,13.0,68,0.00,,,0.00,WUHU21623XXSP,2013-01-23 17:22:00,
2013-01-23 11:24:00,63.5,52.3,30.33,SSE,157,10.0,13.0,67,0.00,,,0.00,WUHU21623XXSP,2013-01-23 17:24:00,
2013-01-23 11:25:00,63.5,52.3,30.33,SSE,157,10.0,13.0,67,0.00,,,0.00,WUHU21623XXSP,2013-01-23 17:25:00,
2013-01-23 11:26:00,63.5,52.3,30.33,SSW,193,7.0,13.0,67,0.00,,,0.00,WUHU21623XXSP,2013-01-23 17:26:00,
2013-01-23 11:27:00,63.5,52.3,30.33,WSW,247,5.0,13.0,67,0.00,,,0.00,WUHU21623XXSP,2013-01-23 17:27:00,
2013-01-23 11:29:00,63.9,52.7,30.33,SSW,211,8.0,16.0,67,0.00,,,0.00,WUHU21623XXSP,2013-01-23 17:29:00,
2013-01-23 11:30:00,63.9,52.7,30.33,SW,218,8.0,16.0,67,0.00,,,0.00,WUHU21623XXSP,2013-01-23 17:30:00,
2013-01-23 11:31:00,64.0,52.4,30.33,WSW,237,8.0,16.0,66,0.00,,,0.00,WUHU21623XXSP,2013-01-23 17:31:00,
2013-01-23 11:32:00,64.0,52.4,30.33,SSW,210,7.0,16.0,66,0.00,,,0.00,WUHU21623XXSP,2013-01-23 17:32:00,
2013-01-23 11:34:00,64.2,52.6,30.33,South,185,6.0,16.0,66,0.00,,,0.00,WUHU21623XXSP,2013-01-23 17:34:00,
2013-01-23 11:35:00,64.2,52.6,30.33,SSW,202,11.0,16.0,66,0.00,,,0.00,WUHU21623XXSP,2013-01-23 17:35:00,
2013-01-23 11:36:00,64.2,52.6,30.33,SSW,201,7.0,16.0,66,0.00,,,0.00,WUHU21623XXSP,2013-01-23 17:36:00,
2013-01-23 11:37:00,64.2,52.6,30.33,WSW,247,7.0,16.0,66,0.00,,,0.00,WUHU21623XXSP,2013-01-23 17:37:00,
2013-01-23 11:40:00,64.6,52.9,30.33,SSW,202,9.0,13.0,66,0.00,,,0.00,WUHU21623XXSP,2013-01-23 17:40:00,
2013-01-23 11:41:00,64.6,52.9,30.33,SW,218,9.0,13.0,66,0.00,,,0.00,WUHU21623XXSP,2013-01-23 17:41:00,
2013-01-23 11:42:00,64.6,52.9,30.33,SW,220,8.0,13.0,66,0.00,,,0.00,WUHU21623XXSP,2013-01-23 17:42:00,
2013-01-23 11:45:00,64.8,52.7,30.32,SSW,202,8.0,13.0,65,0.00,,,0.00,WUHU21623XXSP,2013-01-23 17:45:00,
2013-01-23 11:46:00,64.9,52.8,30.32,SW,221,8.0,13.0,65,0.00,,,0.00,WUHU21623XXSP,2013-01-23 17:46:00,
2013-01-23 11:47:00,64.9,52.8,30.32,SSW,202,12.0,13.0,65,0.00,,,0.00,WUHU21623XXSP,2013-01-23 17:47:00,
2013-01-23 11:50:00,65.1,53.0,30.32,SSE,157,9.0,13.0,65,0.00,,,0.00,WUHU21623XXSP,2013-01-23 17:50:00,
2013-01-23 11:51:00,65.1,53.0,30.32,South,180,9.0,12.0,65,0.00,,,0.00,WUHU21623XXSP,2013-01-23 17:51:00,
2013-01-23 11:52:00,65.3,53.2,30.32,SSW,194,8.0,12.0,65,0.00,,,0.00,WUHU21623XXSP,2013-01-23 17:52:00,
2013-01-23 11:55:00,65.3,53.2,30.31,SW,225,9.0,12.0,65,0.00,,,0.00,WUHU21623XXSP,2013-01-23 17:55:00,
2013-01-23 11:56:00,65.5,53.4,30.31,SE,135,10.0,12.0,65,0.00,,,0.00,WUHU21623XXSP,2013-01-23 17:56:00,
2013-01-23 11:57:00,65.5,52.9,30.31,South,175,5.0,11.0,64,0.00,,,0.00,WUHU21623XXSP,2013-01-23 17:57:00,
2013-01-23 12:00:00,65.8,53.3,30.31,SSW,202,10.0,11.0,64,0.00,,,0.00,WUHU21623XXSP,2013-01-23 18:00:00,
2013-01-23 12:01:00,65.8,53.3,30.31,SSW,202,12.0,16.0,64,0.00,,,0.00,WUHU21623XXSP,2013-01-23 18:01:00,
2013-01-23 12:02:00,66.0,53.5,30.31,WSW,247,14.0,16.0,64,0.00,,,0.00,WUHU21623XXSP,2013-01-23 18:02:00,
2013-01-23 12:06:00,66.0,53.5,30.30,WSW,247,10.0,16.0,64,0.00,,,0.00,WUHU21623XXSP,2013-01-23 18:06:00,
2013-01-23 12:08:00,66.4,53.2,30.31,SW,225,9.0,16.0,63,0.00,,,0.00,WUHU21623XXSP,2013-01-23 18:08:00,
2013-01-23 12:11:00,66.4,53.4,30.30,SW,224,11.0,20.0,63,0.00,,,0.00,WUHU21623XXSP,2013-01-23 18:11:00,
2013-01-23 12:13:00,66.6,53.5,30.30,SW,235,5.0,20.0,63,0.00,,,0.00,WUHU21623XXSP,2013-01-23 18:13:00,
2013-01-23 12:16:00,66.6,53.5,30.30,WSW,245,10.0,20.0,63,0.00,,,0.00,WUHU21623XXSP,2013-01-23 18:16:00,
2013-01-23 12:18:00,66.7,53.7,30.30,SW,228,8.0,20.0,63,0.00,,,0.00,WUHU21623XXSP,2013-01-23 18:18:00,
2013-01-23 12:21:00,66.7,53.3,30.30,WSW,247,9.0,18.0,62,0.00,,,0.00,WUHU21623XXSP,2013-01-23 18:21:00,
2013-01-23 12:22:00,66.9,53.5,30.30,WSW,247,11.0,18.0,62,0.00,,,0.00,WUHU21623XXSP,2013-01-23 18:22:00,
2013-01-23 12:23:00,66.9,53.5,30.29,WSW,239,7.0,18.0,62,0.00,,,0.00,WUHU21623XXSP,2013-01-23 18:23:00,
2013-01-23 12:26:00,67.1,53.6,30.30,SW,220,6.0,12.0,62,0.00,,,0.00,WUHU21623XXSP,2013-01-23 18:26:00,
2013-01-23 12:27:00,67.1,54.0,30.29,SW,220,6.0,12.0,63,0.00,,,0.00,WUHU21623XXSP,2013-01-23 18:27:00,
2013-01-23 12:28:00,67.3,54.2,30.29,WNW,292,9.0,12.0,63,0.00,,,0.00,WUHU21623XXSP,2013-01-23 18:28:00,
2013-01-23 12:31:00,67.3,53.8,30.29,WSW,247,11.0,15.0,62,0.00,,,0.00,WUHU21623XXSP,2013-01-23 18:31:00,
2013-01-23 12:32:00,67.3,53.8,30.29,WSW,238,9.0,15.0,62,0.00,,,0.00,WUHU21623XXSP,2013-01-23 18:32:00,
2013-01-23 12:34:00,67.5,54.0,30.29,SW,216,11.0,18.0,62,0.00,,,0.00,WUHU21623XXSP,2013-01-23 18:34:00,
2013-01-23 12:36:00,67.6,54.3,30.29,SW,231,10.0,18.0,62,0.00,,,0.00,WUHU21623XXSP,2013-01-23 18:36:00,
2013-01-23 12:37:00,67.6,54.1,30.29,SW,234,11.0,18.0,62,0.00,,,0.00,WUHU21623XXSP,2013-01-23 18:37:00,
2013-01-23 12:38:00,67.6,54.3,30.29,SW,232,10.0,18.0,62,0.00,,,0.00,WUHU21623XXSP,2013-01-23 18:38:00,
2013-01-23 12:39:00,67.6,54.1,30.29,SW,231,8.0,18.0,62,0.00,,,0.00,WUHU21623XXSP,2013-01-23 18:39:00,
2013-01-23 12:41:00,67.6,54.1,30.29,South,180,12.0,18.0,62,0.00,,,0.00,WUHU21623XXSP,2013-01-23 18:41:00,
2013-01-23 12:43:00,67.8,54.3,30.29,SW,225,9.0,18.0,62,0.00,,,0.00,WUHU21623XXSP,2013-01-23 18:43:00,
2013-01-23 12:44:00,67.8,53.9,30.29,SW,225,13.0,17.0,61,0.00,,,0.00,WUHU21623XXSP,2013-01-23 18:44:00,
2013-01-23 12:46:00,67.8,53.9,30.29,SW,225,13.0,16.0,61,0.00,,,0.00,WUHU21623XXSP,2013-01-23 18:46:00,
2013-01-23 12:48:00,67.8,53.9,30.29,WSW,247,9.0,13.0,61,0.00,,,0.00,WUHU21623XXSP,2013-01-23 18:48:00,
2013-01-23 12:49:00,67.8,53.9,30.29,West,270,9.0,15.0,61,0.00,,,0.00,WUHU21623XXSP,2013-01-23 18:49:00,
2013-01-23 12:51:00,67.8,53.9,30.29,WSW,247,7.0,15.0,61,0.00,,,0.00,WUHU21623XXSP,2013-01-23 18:51:00,
2013-01-23 12:53:00,68.0,54.0,30.29,SW,236,6.0,15.0,61,0.00,,,0.00,WUHU21623XXSP,2013-01-23 18:53:00,
2013-01-23 12:54:00,68.0,54.0,30.29,SW,225,13.0,15.0,61,0.00,,,0.00,WUHU21623XXSP,2013-01-23 18:54:00,
2013-01-23 12:57:00,68.2,54.2,30.29,SW,225,15.0,15.0,61,0.00,,,0.00,WUHU21623XXSP,2013-01-23 18:57:00,
2013-01-23 12:58:00,68.2,54.2,30.29,SW,225,17.0,17.0,61,0.00,,,0.00,WUHU21623XXSP,2013-01-23 18:58:00,
2013-01-23 12:59:00,68.2,54.2,30.29,WSW,247,12.0,17.0,61,0.00,,,0.00,WUHU21623XXSP,2013-01-23 18:59:00,
2013-01-23 13:02:00,68.2,54.2,30.29,WSW,237,8.0,17.0,61,0.00,,,0.00,WUHU21623XXSP,2013-01-23 19:02:00,
2013-01-23 13:03:00,68.2,54.2,30.29,SSW,207,4.0,17.0,61,0.00,,,0.00,WUHU21623XXSP,2013-01-23 19:03:00,
2013-01-23 13:04:00,68.4,54.4,30.29,SW,225,12.0,17.0,61,0.00,,,0.00,WUHU21623XXSP,2013-01-23 19:04:00,
2013-01-23 13:07:00,68.4,54.4,30.28,SSW,202,9.0,17.0,61,0.00,,,0.00,WUHU21623XXSP,2013-01-23 19:07:00,
2013-01-23 13:08:00,68.5,54.6,30.28,WSW,247,10.0,12.0,61,0.00,,,0.00,WUHU21623XXSP,2013-01-23 19:08:00,
2013-01-23 13:09:00,68.5,54.6,30.28,SW,214,6.0,12.0,61,0.00,,,0.00,WUHU21623XXSP,2013-01-23 19:09:00,
2013-01-23 13:12:00,68.5,54.1,30.28,South,180,7.0,12.0,60,0.00,,,0.00,WUHU21623XXSP,2013-01-23 19:12:00,
2013-01-23 13:14:00,68.7,54.3,30.28,SSW,198,9.0,12.0,60,0.00,,,0.00,WUHU21623XXSP,2013-01-23 19:14:00,
2013-01-23 13:17:00,68.7,54.3,30.28,SSE,168,3.0,11.0,60,0.00,,,0.00,WUHU21623XXSP,2013-01-23 19:17:00,
2013-01-23 13:19:00,68.9,54.5,30.27,SW,236,6.0,11.0,60,0.00,,,0.00,WUHU21623XXSP,2013-01-23 19:19:00,
2013-01-23 13:20:00,68.9,54.5,30.28,SW,225,6.0,11.0,60,0.00,,,0.00,WUHU21623XXSP,2013-01-23 19:20:00,
2013-01-23 13:22:00,69.1,54.7,30.28,South,180,6.0,11.0,60,0.00,,,0.00,WUHU21623XXSP,2013-01-23 19:22:00,
2013-01-23 13:24:00,69.1,54.7,30.28,South,180,4.0,10.0,60,0.00,,,0.00,WUHU21623XXSP,2013-01-23 19:24:00,
2013-01-23 13:25:00,69.1,54.7,30.27,SE,135,10.0,11.0,60,0.00,,,0.00,WUHU21623XXSP,2013-01-23 19:25:00,
2013-01-23 13:27:00,69.3,54.9,30.26,South,181,5.0,11.0,60,0.00,,,0.00,WUHU21623XXSP,2013-01-23 19:27:00,
2013-01-23 13:29:00,69.3,54.9,30.26,South,180,13.0,13.0,60,0.00,,,0.00,WUHU21623XXSP,2013-01-23 19:29:00,
2013-01-23 13:30:00,69.4,55.0,30.26,SW,225,11.0,13.0,60,0.00,,,0.00,WUHU21623XXSP,2013-01-23 19:30:00,
2013-01-23 13:32:00,69.4,55.0,30.26,SW,221,7.0,13.0,60,0.00,,,0.00,WUHU21623XXSP,2013-01-23 19:32:00,
2013-01-23 13:34:00,69.4,55.0,30.26,SSW,202,12.0,17.0,60,0.00,,,0.00,WUHU21623XXSP,2013-01-23 19:34:00,
2013-01-23 13:35:00,69.4,54.5,30.26,SW,214,8.0,17.0,59,0.00,,,0.00,WUHU21623XXSP,2013-01-23 19:35:00,
2013-01-23 13:37:00,69.4,54.5,30.26,SW,225,10.0,17.0,59,0.00,,,0.00,WUHU21623XXSP,2013-01-23 19:37:00,
2013-01-23 13:39:00,69.6,54.7,30.25,SSW,208,5.0,17.0,59,0.00,,,0.00,WUHU21623XXSP,2013-01-23 19:39:00,
2013-01-23 13:40:00,69.6,54.7,30.25,SSW,202,10.0,17.0,59,0.00,,,0.00,WUHU21623XXSP,2013-01-23 19:40:00,
2013-01-23 13:43:00,69.6,54.7,30.25,SSW,211,7.0,17.0,59,0.00,,,0.00,WUHU21623XXSP,2013-01-23 19:43:00,
2013-01-23 13:45:00,69.6,54.7,30.25,WSW,247,7.0,11.0,59,0.00,,,0.00,WUHU21623XXSP,2013-01-23 19:45:00,
2013-01-23 13:48:00,69.8,54.9,30.25,SSW,194,6.0,11.0,59,0.00,,,0.00,WUHU21623XXSP,2013-01-23 19:48:00,
2013-01-23 13:50:00,69.8,54.9,30.25,SW,225,5.0,11.0,59,0.00,,,0.00,WUHU21623XXSP,2013-01-23 19:50:00,
2013-01-23 13:53:00,70.0,55.1,30.25,SW,225,7.0,11.0,59,0.00,,,0.00,WUHU21623XXSP,2013-01-23 19:53:00,
2013-01-23 13:55:00,70.0,55.1,30.25,SW,224,7.0,12.0,59,0.00,,,0.00,WUHU21623XXSP,2013-01-23 19:55:00,
2013-01-23 13:58:00,70.2,55.2,30.25,SW,224,9.0,12.0,59,0.00,,,0.00,WUHU21623XXSP,2013-01-23 19:58:00,
2013-01-23 14:00:00,70.2,55.2,30.25,SSW,197,3.0,12.0,59,0.00,,,0.00,WUHU21623XXSP,2013-01-23 20:00:00,
2013-01-23 14:03:00,70.2,54.7,30.25,WSW,237,6.0,12.0,58,0.00,,,0.00,WUHU21623XXSP,2013-01-23 20:03:00,
2013-01-23 14:05:00,70.3,54.9,30.25,WSW,247,10.0,12.0,58,0.00,,,0.00,WUHU21623XXSP,2013-01-23 20:05:00,
2013-01-23 14:06:00,70.3,54.9,30.25,WSW,246,7.0,12.0,58,0.00,,,0.00,WUHU21623XXSP,2013-01-23 20:06:00,
2013-01-23 14:08:00,70.3,54.9,30.25,SW,221,6.0,12.0,58,0.00,,,0.00,WUHU21623XXSP,2013-01-23 20:08:00,
2013-01-23 14:10:00,70.3,54.9,30.25,SW,214,7.0,12.0,59,0.00,,,0.00,WUHU21623XXSP,2013-01-23 20:10:00,
2013-01-23 14:11:00,70.3,55.4,30.25,SW,216,7.0,12.0,59,0.00,,,0.00,WUHU21623XXSP,2013-01-23 20:11:00,
2013-01-23 14:13:00,70.5,55.5,30.25,SW,216,5.0,12.0,59,0.00,,,0.00,WUHU21623XXSP,2013-01-23 20:13:00,
2013-01-23 14:15:00,70.5,55.5,30.25,South,180,9.0,12.0,59,0.00,,,0.00,WUHU21623XXSP,2013-01-23 20:15:00,
2013-01-23 14:16:00,70.5,55.5,30.25,South,183,6.0,12.0,59,0.00,,,0.00,WUHU21623XXSP,2013-01-23 20:16:00,
2013-01-23 14:18:00,70.5,55.0,30.25,SSW,206,9.0,15.0,58,0.00,,,0.00,WUHU21623XXSP,2013-01-23 20:18:00,
2013-01-23 14:20:00,70.5,55.0,30.25,SSW,213,8.0,15.0,58,0.00,,,0.00,WUHU21623XXSP,2013-01-23 20:20:00,
2013-01-23 14:21:00,70.5,55.0,30.25,South,191,6.0,15.0,58,0.00,,,0.00,WUHU21623XXSP,2013-01-23 20:21:00,
2013-01-23 14:23:00,70.7,55.2,30.25,South,180,7.0,15.0,58,0.00,,,0.00,WUHU21623XXSP,2013-01-23 20:23:00,
2013-01-23 14:25:00,70.7,55.2,30.25,SE,135,7.0,15.0,58,0.00,,,0.00,WUHU21623XXSP,2013-01-23 20:25:00,
2013-01-23 14:26:00,70.7,55.2,30.24,SSE,157,6.0,15.0,58,0.00,,,0.00,WUHU21623XXSP,2013-01-23 20:26:00,
2013-01-23 14:28:00,70.7,55.2,30.24,SSW,202,9.0,14.0,58,0.00,,,0.00,WUHU21623XXSP,2013-01-23 20:28:00,
2013-01-23 14:31:00,70.9,55.4,30.25,SSW,196,5.0,11.0,58,0.00,,,0.00,WUHU21623XXSP,2013-01-23 20:31:00,
2013-01-23 14:32:00,70.9,55.4,30.25,SSW,202,6.0,11.0,58,0.00,,,0.00,WUHU21623XXSP,2013-01-23 20:32:00,
2013-01-23 14:34:00,70.9,55.4,30.24,SSE,157,12.0,12.0,58,0.00,,,0.00,WUHU21623XXSP,2013-01-23 20:34:00,
2013-01-23 14:36:00,70.9,55.4,30.24,South,183,6.0,12.0,58,0.00,,,0.00,WUHU21623XXSP,2013-01-23 20:36:00,
2013-01-23 14:37:00,70.9,55.4,30.24,South,180,7.0,12.0,58,0.00,,,0.00,WUHU21623XXSP,2013-01-23 20:37:00,
2013-01-23 14:39:00,70.9,55.4,30.24,SSE,157,9.0,12.0,58,0.00,,,0.00,WUHU21623XXSP,2013-01-23 20:39:00,
2013-01-23 14:41:00,70.9,55.4,30.24,South,180,7.0,12.0,58,0.00,,,0.00,WUHU21623XXSP,2013-01-23 20:41:00,
2013-01-23 14:42:00,71.1,55.5,30.24,SSE,157,8.0,12.0,58,0.00,,,0.00,WUHU21623XXSP,2013-01-23 20:42:00,
2013-01-23 14:44:00,71.2,55.7,30.24,SSW,193,4.0,10.0,58,0.00,,,0.00,WUHU21623XXSP,2013-01-23 20:44:00,
2013-01-23 14:46:00,71.2,55.7,30.24,South,184,4.0,11.0,58,0.00,,,0.00,WUHU21623XXSP,2013-01-23 20:46:00,
2013-01-23 14:47:00,71.2,55.7,30.24,West,270,5.0,11.0,58,0.00,,,0.00,WUHU21623XXSP,2013-01-23 20:47:00,
2013-01-23 14:49:00,71.2,55.7,30.24,SSW,202,10.0,11.0,58,0.00,,,0.00,WUHU21623XXSP,2013-01-23 20:49:00,
2013-01-23 14:51:00,71.2,55.7,30.24,SSW,202,8.0,11.0,58,0.00,,,0.00,WUHU21623XXSP,2013-01-23 20:51:00,
2013-01-23 14:52:00,71.2,55.7,30.24,South,180,9.0,12.0,58,0.00,,,0.00,WUHU21623XXSP,2013-01-23 20:52:00,
2013-01-23 14:54:00,71.2,55.7,30.24,SSW,196,8.0,12.0,58,0.00,,,0.00,WUHU21623XXSP,2013-01-23 20:54:00,
2013-01-23 14:56:00,71.2,55.7,30.24,SSW,209,5.0,12.0,58,0.00,,,0.00,WUHU21623XXSP,2013-01-23 20:56:00,
2013-01-23 14:57:00,71.2,55.7,30.24,West,270,10.0,12.0,58,0.00,,,0.00,WUHU21623XXSP,2013-01-23 20:57:00,
2013-01-23 14:59:00,71.2,55.2,30.24,SSW,202,9.0,12.0,57,0.00,,,0.00,WUHU21623XXSP,2013-01-23 20:59:00,
2013-01-23 15:01:00,71.4,55.3,30.24,SE,135,7.0,12.0,57,0.00,,,0.00,WUHU21623XXSP,2013-01-23 21:01:00,
2013-01-23 15:02:00,71.4,55.3,30.24,SSE,166,6.0,11.0,57,0.00,,,0.00,WUHU21623XXSP,2013-01-23 21:02:00,
2013-01-23 15:03:00,71.4,55.3,30.24,SSE,167,6.0,11.0,57,0.00,,,0.00,WUHU21623XXSP,2013-01-23 21:03:00,
2013-01-23 15:04:00,71.4,55.3,30.24,SSE,161,6.0,11.0,57,0.00,,,0.00,WUHU21623XXSP,2013-01-23 21:04:00,
2013-01-23 15:06:00,71.4,55.3,30.24,South,180,11.0,11.0,57,0.00,,,0.00,WUHU21623XXSP,2013-01-23 21:06:00,
2013-01-23 15:07:00,71.4,55.3,30.24,South,176,7.0,11.0,57,0.00,,,0.00,WUHU21623XXSP,2013-01-23 21:07:00,
2013-01-23 15:08:00,71.4,55.3,30.24,South,182,6.0,11.0,57,0.00,,,0.00,WUHU21623XXSP,2013-01-23 21:08:00,
2013-01-23 15:09:00,71.4,55.3,30.24,South,180,5.0,11.0,57,0.00,,,0.00,WUHU21623XXSP,2013-01-23 21:09:00,
2013-01-23 15:11:00,71.4,55.3,30.24,SSW,207,6.0,13.0,57,0.00,,,0.00,WUHU21623XXSP,2013-01-23 21:11:00,
2013-01-23 15:13:00,71.4,55.3,30.24,SSW,202,10.0,13.0,57,0.00,,,0.00,WUHU21623XXSP,2013-01-23 21:13:00,
2013-01-23 15:15:00,71.4,55.3,30.24,WSW,247,8.0,13.0,57,0.00,,,0.00,WUHU21623XXSP,2013-01-23 21:15:00,
2013-01-23 15:16:00,71.4,55.3,30.24,SSE,157,10.0,13.0,57,0.00,,,0.00,WUHU21623XXSP,2013-01-23 21:16:00,
2013-01-23 15:18:00,71.4,55.3,30.24,South,176,8.0,13.0,57,0.00,,,0.00,WUHU21623XXSP,2013-01-23 21:18:00,
2013-01-23 15:20:00,71.4,55.3,30.24,South,173,5.0,13.0,57,0.00,,,0.00,WUHU21623XXSP,2013-01-23 21:20:00,
2013-01-23 15:21:00,71.4,55.3,30.24,WSW,247,14.0,14.0,57,0.00,,,0.00,WUHU21623XXSP,2013-01-23 21:21:00,
2013-01-23 15:23:00,71.4,55.3,30.24,SW,220,7.0,14.0,57,0.00,,,0.00,WUHU21623XXSP,2013-01-23 21:23:00,
2013-01-23 15:25:00,71.4,55.3,30.24,SSW,192,4.0,14.0,57,0.00,,,0.00,WUHU21623XXSP,2013-01-23 21:25:00,
2013-01-23 15:26:00,71.4,55.3,30.23,South,188,7.0,14.0,57,0.00,,,0.00,WUHU21623XXSP,2013-01-23 21:26:00,
2013-01-23 15:28:00,71.4,55.3,30.23,SW,225,10.0,14.0,57,0.00,,,0.00,WUHU21623XXSP,2013-01-23 21:28:00,
2013-01-23 15:30:00,71.6,55.5,30.23,South,180,8.0,14.0,57,0.00,,,0.00,WUHU21623XXSP,2013-01-23 21:30:00,
2013-01-23 15:31:00,71.6,55.5,30.24,SSW,195,7.0,11.0,57,0.00,,,0.00,WUHU21623XXSP,2013-01-23 21:31:00,
2013-01-23 15:33:00,71.6,55.5,30.23,SSW,202,7.0,11.0,57,0.00,,,0.00,WUHU21623XXSP,2013-01-23 21:33:00,
2013-01-23 15:35:00,71.6,55.5,30.23,SSE,164,6.0,11.0,57,0.00,,,0.00,WUHU21623XXSP,2013-01-23 21:35:00,
2013-01-23 15:37:00,71.6,55.5,30.23,SSE,166,4.0,11.0,57,0.00,,,0.00,WUHU21623XXSP,2013-01-23 21:37:00,
2013-01-23 15:38:00,71.6,55.5,30.23,SSE,157,8.0,11.0,57,0.00,,,0.00,WUHU21623XXSP,2013-01-23 21:38:00,
2013-01-23 15:39:00,71.6,55.5,30.23,SSE,157,9.0,11.0,57,0.00,,,0.00,WUHU21623XXSP,2013-01-23 21:39:00,
2013-01-23 15:40:00,71.6,55.5,30.23,South,180,8.0,12.0,57,0.00,,,0.00,WUHU21623XXSP,2013-01-23 21:40:00,
2013-01-23 15:42:00,71.8,55.7,30.23,ESE,112,5.0,12.0,57,0.00,,,0.00,WUHU21623XXSP,2013-01-23 21:42:00,
2013-01-23 15:43:00,71.8,55.7,30.23,SE,146,6.0,12.0,57,0.00,,,0.00,WUHU21623XXSP,2013-01-23 21:43:00,
2013-01-23 15:44:00,71.8,55.7,30.23,SSE,156,5.0,12.0,57,0.00,,,0.00,WUHU21623XXSP,2013-01-23 21:44:00,
2013-01-23 15:46:00,71.8,55.7,30.23,South,180,6.0,13.0,57,0.00,,,0.00,WUHU21623XXSP,2013-01-23 21:46:00,
2013-01-23 15:47:00,71.8,55.7,30.23,South,175,6.0,13.0,57,0.00,,,0.00,WUHU21623XXSP,2013-01-23 21:47:00,
2013-01-23 15:48:00,71.8,55.7,30.23,SE,144,5.0,13.0,57,0.00,,,0.00,WUHU21623XXSP,2013-01-23 21:48:00,
2013-01-23 15:49:00,71.8,55.7,30.23,SE,135,6.0,13.0,57,0.00,,,0.00,WUHU21623XXSP,2013-01-23 21:49:00,
2013-01-23 15:51:00,71.8,55.7,30.23,SSE,157,9.0,13.0,57,0.00,,,0.00,WUHU21623XXSP,2013-01-23 21:51:00,
2013-01-23 15:53:00,71.8,55.7,30.23,SSE,161,6.0,13.0,57,0.00,,,0.00,WUHU21623XXSP,2013-01-23 21:53:00,
2013-01-23 15:54:00,71.8,55.7,30.23,South,178,5.0,13.0,57,0.00,,,0.00,WUHU21623XXSP,2013-01-23 21:54:00,
2013-01-23 15:56:00,71.8,55.7,30.23,South,180,5.0,10.0,57,0.00,,,0.00,WUHU21623XXSP,2013-01-23 21:56:00,
2013-01-23 15:58:00,71.8,55.7,30.23,South,169,5.0,10.0,57,0.00,,,0.00,WUHU21623XXSP,2013-01-23 21:58:00,
2013-01-23 15:59:00,71.8,55.9,30.23,SSE,166,6.0,11.0,57,0.00,,,0.00,WUHU21623XXSP,2013-01-23 21:59:00,
2013-01-23 16:01:00,71.8,55.7,30.23,SSE,160,7.0,13.0,57,0.00,,,0.00,WUHU21623XXSP,2013-01-23 22:01:00,
2013-01-23 16:03:00,71.8,55.7,30.23,SSW,202,5.0,13.0,57,0.00,,,0.00,WUHU21623XXSP,2013-01-23 22:03:00,
2013-01-23 16:05:00,71.8,55.7,30.23,ESE,112,7.0,13.0,57,0.00,,,0.00,WUHU21623XXSP,2013-01-23 22:05:00,
2013-01-23 16:06:00,71.8,55.7,30.23,SSE,167,6.0,13.0,57,0.00,,,0.00,WUHU21623XXSP,2013-01-23 22:06:00,
2013-01-23 16:08:00,71.8,55.7,30.23,SSE,157,6.0,13.0,57,0.00,,,0.00,WUHU21623XXSP,2013-01-23 22:08:00,
2013-01-23 16:10:00,71.8,55.7,30.23,South,184,6.0,13.0,57,0.00,,,0.00,WUHU21623XXSP,2013-01-23 22:10:00,
2013-01-23 16:11:00,71.8,55.7,30.23,South,185,6.0,13.0,57,0.00,,,0.00,WUHU21623XXSP,2013-01-23 22:11:00,
2013-01-23 16:14:00,71.8,55.7,30.23,South,174,7.0,13.0,57,0.00,,,0.00,WUHU21623XXSP,2013-01-23 22:14:00,
2013-01-23 16:15:00,71.8,55.7,30.23,South,180,12.0,13.0,57,0.00,,,0.00,WUHU21623XXSP,2013-01-23 22:15:00,
2013-01-23 16:16:00,71.8,55.7,30.23,SSE,156,10.0,13.0,57,0.00,,,0.00,WUHU21623XXSP,2013-01-23 22:16:00,
2013-01-23 16:19:00,71.8,55.7,30.23,SSE,157,7.0,13.0,57,0.00,,,0.00,WUHU21623XXSP,2013-01-23 22:19:00,
2013-01-23 16:20:00,71.8,55.7,30.23,SSE,157,9.0,13.0,57,0.00,,,0.00,WUHU21623XXSP,2013-01-23 22:20:00,
2013-01-23 16:21:00,71.8,55.7,30.23,SSE,165,8.0,13.0,57,0.00,,,0.00,WUHU21623XXSP,2013-01-23 22:21:00,
2013-01-23 16:24:00,71.8,55.7,30.23,South,178,6.0,13.0,57,0.00,,,0.00,WUHU21623XXSP,2013-01-23 22:24:00,
2013-01-23 16:25:00,71.6,55.5,30.23,South,174,5.0,13.0,57,0.00,,,0.00,WUHU21623XXSP,2013-01-23 22:25:00,
2013-01-23 16:27:00,71.8,55.7,30.23,SSW,198,4.0,12.0,57,0.00,,,0.00,WUHU21623XXSP,2013-01-23 22:27:00,
2013-01-23 16:29:00,71.8,55.9,30.23,South,179,5.0,12.0,57,0.00,,,0.00,WUHU21623XXSP,2013-01-23 22:29:00,
2013-01-23 16:30:00,71.6,55.5,30.23,SSE,157,8.0,12.0,57,0.00,,,0.00,WUHU21623XXSP,2013-01-23 22:30:00,
2013-01-23 16:32:00,71.8,55.7,30.23,SSE,157,11.0,12.0,57,0.00,,,0.00,WUHU21623XXSP,2013-01-23 22:32:00,
2013-01-23 16:34:00,71.4,55.3,30.23,SSE,162,8.0,13.0,57,0.00,,,0.00,WUHU21623XXSP,2013-01-23 22:34:00,
2013-01-23 16:35:00,71.4,55.3,30.23,SSE,161,10.0,15.0,57,0.00,,,0.00,WUHU21623XXSP,2013-01-23 22:35:00,
2013-01-23 16:38:00,71.4,55.3,30.22,SSE,164,4.0,15.0,57,0.00,,,0.00,WUHU21623XXSP,2013-01-23 22:38:00,
2013-01-23 16:39:00,71.4,55.3,30.22,SSE,157,7.0,15.0,57,0.00,,,0.00,WUHU21623XXSP,2013-01-23 22:39:00,
2013-01-23 16:40:00,71.4,55.3,30.23,South,172,9.0,15.0,57,0.00,,,0.00,WUHU21623XXSP,2013-01-23 22:40:00,
2013-01-23 16:43:00,71.4,55.3,30.23,SSW,202,6.0,15.0,57,0.00,,,0.00,WUHU21623XXSP,2013-01-23 22:43:00,
2013-01-23 16:44:00,71.4,55.3,30.23,South,185,5.0,15.0,57,0.00,,,0.00,WUHU21623XXSP,2013-01-23 22:44:00,
2013-01-23 16:45:00,71.4,55.3,30.23,SSE,158,6.0,12.0,57,0.00,,,0.00,WUHU21623XXSP,2013-01-23 22:45:00,
2013-01-23 16:48:00,71.4,55.3,30.23,South,174,7.0,12.0,57,0.00,,,0.00,WUHU21623XXSP,2013-01-23 22:48:00,
2013-01-23 16:49:00,71.4,55.3,30.23,SE,135,7.0,11.0,57,0.00,,,0.00,WUHU21623XXSP,2013-01-23 22:49:00,
2013-01-23 16:50:00,71.4,55.3,30.23,South,180,10.0,11.0,57,0.00,,,0.00,WUHU21623XXSP,2013-01-23 22:50:00,
2013-01-23 16:53:00,71.4,55.3,30.23,South,174,8.0,11.0,57,0.00,,,0.00,WUHU21623XXSP,2013-01-23 22:53:00,
2013-01-23 16:54:00,71.4,55.3,30.22,South,174,5.0,11.0,57,0.00,,,0.00,WUHU21623XXSP,2013-01-23 22:54:00,
2013-01-23 16:55:00,71.4,55.3,30.22,SSW,202,6.0,11.0,57,0.00,,,0.00,WUHU21623XXSP,2013-01-23 22:55:00,
2013-01-23 16:56:00,71.4,55.3,30.23,South,174,5.0,11.0,57,0.00,,,0.00,WUHU21623XXSP,2013-01-23 22:56:00,
2013-01-23 16:58:00,71.4,55.3,30.22,SSE,157,10.0,11.0,57,0.00,,,0.00,WUHU21623XXSP,2013-01-23 22:58:00,
2013-01-23 17:00:00,71.4,55.3,30.22,South,180,11.0,11.0,57,0.00,,,0.00,WUHU21623XXSP,2013-01-23 23:00:00,
2013-01-23 17:01:00,71.4,55.3,30.22,South,171,7.0,11.0,57,0.00,,,0.00,WUHU21623XXSP,2013-01-23 23:01:00,
2013-01-23 17:03:00,71.4,55.3,30.22,SSE,157,6.0,11.0,57,0.00,,,0.00,WUHU21623XXSP,2013-01-23 23:03:00,
2013-01-23 17:05:00,71.4,55.3,30.22,South,180,9.0,11.0,57,0.00,,,0.00,WUHU21623XXSP,2013-01-23 23:05:00,
2013-01-23 17:06:00,71.2,55.2,30.22,SSE,155,6.0,11.0,57,0.00,,,0.00,WUHU21623XXSP,2013-01-23 23:06:00,
2013-01-23 17:08:00,71.2,55.2,30.22,South,180,5.0,11.0,57,0.00,,,0.00,WUHU21623XXSP,2013-01-23 23:08:00,
2013-01-23 17:10:00,71.2,55.2,30.22,South,172,4.0,10.0,57,0.00,,,0.00,WUHU21623XXSP,2013-01-23 23:10:00,
2013-01-23 17:11:00,71.2,55.2,30.22,South,173,6.0,11.0,57,0.00,,,0.00,WUHU21623XXSP,2013-01-23 23:11:00,
2013-01-23 17:13:00,71.2,55.2,30.22,SSE,168,7.0,12.0,57,0.00,,,0.00,WUHU21623XXSP,2013-01-23 23:13:00,
2013-01-23 17:15:00,71.2,55.2,30.22,SE,135,5.0,12.0,57,0.00,,,0.00,WUHU21623XXSP,2013-01-23 23:15:00,
2013-01-23 17:16:00,71.2,55.2,30.22,SSE,157,9.0,12.0,57,0.00,,,0.00,WUHU21623XXSP,2013-01-23 23:16:00,
2013-01-23 17:18:00,71.2,55.2,30.22,SSE,157,7.0,12.0,57,0.00,,,0.00,WUHU21623XXSP,2013-01-23 23:18:00,
2013-01-23 17:20:00,71.2,55.7,30.22,SSE,164,6.0,12.0,58,0.00,,,0.00,WUHU21623XXSP,2013-01-23 23:20:00,
2013-01-23 17:21:00,71.2,55.7,30.22,South,170,7.0,12.0,58,0.00,,,0.00,WUHU21623XXSP,2013-01-23 23:21:00,
2013-01-23 17:23:00,71.2,55.2,30.22,South,180,6.0,10.0,57,0.00,,,0.00,WUHU21623XXSP,2013-01-23 23:23:00,
2013-01-23 17:25:00,71.2,55.7,30.22,SSE,157,6.0,10.0,58,0.00,,,0.00,WUHU21623XXSP,2013-01-23 23:25:00,
2013-01-23 17:26:00,71.2,55.7,30.22,SSE,160,7.0,10.0,58,0.00,,,0.00,WUHU21623XXSP,2013-01-23 23:26:00,
2013-01-23 17:27:00,71.2,55.7,30.22,SSE,160,6.0,10.0,58,0.00,,,0.00,WUHU21623XXSP,2013-01-23 23:27:00,
2013-01-23 17:28:00,71.2,55.7,30.22,South,186,5.0,10.0,58,0.00,,,0.00,WUHU21623XXSP,2013-01-23 23:28:00,
2013-01-23 17:30:00,71.1,55.5,30.22,South,180,9.0,10.0,58,0.00,,,0.00,WUHU21623XXSP,2013-01-23 23:30:00,
2013-01-23 17:31:00,70.9,55.4,30.22,SSE,156,7.0,10.0,58,0.00,,,0.00,WUHU21623XXSP,2013-01-23 23:31:00,
2013-01-23 17:32:00,70.9,55.4,30.22,SSE,156,7.0,10.0,58,0.00,,,0.00,WUHU21623XXSP,2013-01-23 23:32:00,
2013-01-23 17:33:00,70.9,55.4,30.22,South,181,5.0,10.0,58,0.00,,,0.00,WUHU21623XXSP,2013-01-23 23:33:00,
2013-01-23 17:35:00,70.9,55.4,30.22,South,184,5.0,10.0,58,0.00,,,0.00,WUHU21623XXSP,2013-01-23 23:35:00,
2013-01-23 17:36:00,70.9,55.4,30.22,South,185,5.0,10.0,58,0.00,,,0.00,WUHU21623XXSP,2013-01-23 23:36:00,
2013-01-23 17:37:00,70.9,55.4,30.22,South,180,7.0,10.0,58,0.00,,,0.00,WUHU21623XXSP,2013-01-23 23:37:00,
2013-01-23 17:38:00,70.9,55.4,30.22,South,180,5.0,10.0,58,0.00,,,0.00,WUHU21623XXSP,2013-01-23 23:38:00,
2013-01-23 17:40:00,70.9,55.4,30.22,SSE,157,7.0,10.0,58,0.00,,,0.00,WUHU21623XXSP,2013-01-23 23:40:00,
2013-01-23 17:41:00,70.9,55.4,30.22,SSE,147,5.0,10.0,58,0.00,,,0.00,WUHU21623XXSP,2013-01-23 23:41:00,
2013-01-23 17:42:00,70.9,55.4,30.22,SSE,151,5.0,10.0,58,0.00,,,0.00,WUHU21623XXSP,2013-01-23 23:42:00,
2013-01-23 17:44:00,70.7,55.2,30.22,SSE,157,4.0,9.0,58,0.00,,,0.00,WUHU21623XXSP,2013-01-23 23:44:00,
2013-01-23 17:45:00,70.7,55.2,30.22,SSE,151,5.0,9.0,58,0.00,,,0.00,WUHU21623XXSP,2013-01-23 23:45:00,
2013-01-23 17:46:00,70.7,55.2,30.22,South,178,6.0,10.0,58,0.00,,,0.00,WUHU21623XXSP,2013-01-23 23:46:00,
2013-01-23 17:47:00,70.7,55.2,30.22,South,178,6.0,10.0,58,0.00,,,0.00,WUHU21623XXSP,2013-01-23 23:47:00,
2013-01-23 17:49:00,70.5,55.0,30.22,South,179,6.0,10.0,58,0.00,,,0.00,WUHU21623XXSP,2013-01-23 23:49:00,
2013-01-23 17:50:00,70.5,55.0,30.22,SSW,202,8.0,10.0,58,0.00,,,0.00,WUHU21623XXSP,2013-01-23 23:50:00,
2013-01-23 17:51:00,70.5,55.0,30.22,South,188,4.0,10.0,58,0.00,,,0.00,WUHU21623XXSP,2013-01-23 23:51:00,
2013-01-23 17:52:00,70.5,55.0,30.22,South,181,4.0,10.0,58,0.00,,,0.00,WUHU21623XXSP,2013-01-23 23:52:00,
2013-01-23 17:54:00,70.5,55.0,30.22,South,182,5.0,10.0,58,0.00,,,0.00,WUHU21623XXSP,2013-01-23 23:54:00,
2013-01-23 17:55:00,70.5,55.0,30.22,SSE,157,7.0,10.0,58,0.00,,,0.00,WUHU21623XXSP,2013-01-23 23:55:00,
2013-01-23 17:56:00,70.3,54.9,30.22,SSE,157,8.0,10.0,58,0.00,,,0.00,WUHU21623XXSP,2013-01-23 23:56:00,
2013-01-23 17:57:00,70.3,54.9,30.22,SSW,202,9.0,10.0,58,0.00,,,0.00,WUHU21623XXSP,2013-01-23 23:57:00,
2013-01-23 17:59:00,70.3,54.9,30.22,WSW,247,8.0,11.0,58,0.00,,,0.00,WUHU21623XXSP,2013-01-23 23:59:00,
2013-01-23 18:00:00,70.3,54.9,30.22,SSW,192,7.0,11.0,58,0.00,,,0.00,WUHU21623XXSP,2013-01-24 00:00:00,
2013-01-23 18:01:00,70.3,54.9,30.21,South,180,5.0,11.0,58,0.00,,,0.00,WUHU21623XXSP,2013-01-24 00:01:00,
2013-01-23 18:03:00,70.3,54.9,30.21,SSE,157,5.0,11.0,58,0.00,,,0.00,WUHU21623XXSP,2013-01-24 00:03:00,
2013-01-23 18:04:00,70.3,54.9,30.21,SSE,157,6.0,11.0,58,0.00,,,0.00,WUHU21623XXSP,2013-01-24 00:04:00,
2013-01-23 18:06:00,70.2,54.7,30.21,SSE,157,6.0,11.0,58,0.00,,,0.00,WUHU21623XXSP,2013-01-24 00:06:00,
2013-01-23 18:07:00,70.2,54.7,30.21,SSE,164,6.0,11.0,58,0.00,,,0.00,WUHU21623XXSP,2013-01-24 00:07:00,
2013-01-23 18:08:00,70.2,54.7,30.21,SW,225,10.0,11.0,58,0.00,,,0.00,WUHU21623XXSP,2013-01-24 00:08:00,
2013-01-23 18:09:00,70.2,54.7,30.21,SSW,198,4.0,10.0,58,0.00,,,0.00,WUHU21623XXSP,2013-01-24 00:09:00,
2013-01-23 18:11:00,70.0,54.6,30.21,South,170,4.0,10.0,58,0.00,,,0.00,WUHU21623XXSP,2013-01-24 00:11:00,
2013-01-23 18:12:00,70.0,54.6,30.21,SSE,168,5.0,10.0,58,0.00,,,0.00,WUHU21623XXSP,2013-01-24 00:12:00,
2013-01-23 18:13:00,70.0,54.6,30.21,South,187,5.0,10.0,58,0.00,,,0.00,WUHU21623XXSP,2013-01-24 00:13:00,
2013-01-23 18:14:00,70.0,54.6,30.21,South,180,5.0,10.0,58,0.00,,,0.00,WUHU21623XXSP,2013-01-24 00:14:00,
2013-01-23 18:16:00,70.0,54.6,30.21,South,181,4.0,10.0,58,0.00,,,0.00,WUHU21623XXSP,2013-01-24 00:16:00,
2013-01-23 18:17:00,70.0,54.6,30.21,South,171,4.0,10.0,58,0.00,,,0.00,WUHU21623XXSP,2013-01-24 00:17:00,
2013-01-23 18:18:00,69.8,54.4,30.21,South,180,6.0,10.0,58,0.00,,,0.00,WUHU21623XXSP,2013-01-24 00:18:00,
2013-01-23 18:19:00,69.8,54.4,30.21,SW,225,7.0,10.0,58,0.00,,,0.00,WUHU21623XXSP,2013-01-24 00:19:00,
2013-01-23 18:22:00,69.6,54.2,30.21,South,183,6.0,10.0,58,0.00,,,0.00,WUHU21623XXSP,2013-01-24 00:22:00,
2013-01-23 18:24:00,69.6,54.2,30.21,SE,135,10.0,10.0,58,0.00,,,0.00,WUHU21623XXSP,2013-01-24 00:24:00,
2013-01-23 18:27:00,69.6,54.2,30.21,South,180,5.0,10.0,58,0.00,,,0.00,WUHU21623XXSP,2013-01-24 00:27:00,
2013-01-23 18:29:00,69.6,54.2,30.21,SSE,157,11.0,11.0,58,0.00,,,0.00,WUHU21623XXSP,2013-01-24 00:29:00,
2013-01-23 18:30:00,69.6,54.2,30.21,SSE,161,7.0,11.0,58,0.00,,,0.00,WUHU21623XXSP,2013-01-24 00:30:00,
2013-01-23 18:32:00,69.4,54.0,30.21,SSE,157,7.0,11.0,58,0.00,,,0.00,WUHU21623XXSP,2013-01-24 00:32:00,
2013-01-23 18:34:00,69.4,54.0,30.21,SSE,163,6.0,11.0,58,0.00,,,0.00,WUHU21623XXSP,2013-01-24 00:34:00,
2013-01-23 18:35:00,69.4,54.0,30.22,South,183,5.0,11.0,58,0.00,,,0.00,WUHU21623XXSP,2013-01-24 00:35:00,
2013-01-23 18:37:00,69.3,53.9,30.21,South,180,5.0,11.0,58,0.00,,,0.00,WUHU21623XXSP,2013-01-24 00:37:00,
2013-01-23 18:38:00,69.4,54.0,30.21,South,169,4.0,11.0,58,0.00,,,0.00,WUHU21623XXSP,2013-01-24 00:38:00,
2013-01-23 18:39:00,69.3,53.9,30.22,South,180,8.0,11.0,58,0.00,,,0.00,WUHU21623XXSP,2013-01-24 00:39:00,
2013-01-23 18:40:00,69.3,54.4,30.22,SW,225,5.0,11.0,59,0.00,,,0.00,WUHU21623XXSP,2013-01-24 00:40:00,
2013-01-23 18:42:00,69.3,54.4,30.21,South,180,10.0,10.0,59,0.00,,,0.00,WUHU21623XXSP,2013-01-24 00:42:00,
2013-01-23 18:43:00,69.3,54.4,30.21,South,183,5.0,10.0,59,0.00,,,0.00,WUHU21623XXSP,2013-01-24 00:43:00,
2013-01-23 18:44:00,69.1,54.2,30.22,South,175,5.0,10.0,59,0.00,,,0.00,WUHU21623XXSP,2013-01-24 00:44:00,
2013-01-23 18:45:00,69.1,54.2,30.22,SSE,161,4.0,10.0,59,0.00,,,0.00,WUHU21623XXSP,2013-01-24 00:45:00,
2013-01-23 18:47:00,69.1,54.2,30.21,South,188,5.0,10.0,59,0.00,,,0.00,WUHU21623XXSP,2013-01-24 00:47:00,
2013-01-23 18:48:00,69.1,54.2,30.21,SSW,192,5.0,10.0,59,0.00,,,0.00,WUHU21623XXSP,2013-01-24 00:48:00,
2013-01-23 18:49:00,69.1,54.2,30.21,South,169,4.0,10.0,59,0.00,,,0.00,WUHU21623XXSP,2013-01-24 00:49:00,
2013-01-23 18:50:00,69.1,54.2,30.21,SSE,157,7.0,10.0,59,0.00,,,0.00,WUHU21623XXSP,2013-01-24 00:50:00,
2013-01-23 18:53:00,68.9,54.0,30.21,SSE,157,6.0,9.0,59,0.00,,,0.00,WUHU21623XXSP,2013-01-24 00:53:00,
2013-01-23 18:54:00,68.9,54.0,30.21,South,180,7.0,9.0,59,0.00,,,0.00,WUHU21623XXSP,2013-01-24 00:54:00,
2013-01-23 18:55:00,68.9,54.0,30.21,SSW,202,8.0,9.0,59,0.00,,,0.00,WUHU21623XXSP,2013-01-24 00:55:00,
2013-01-23 18:58:00,68.9,54.0,30.21,SSE,164,5.0,10.0,59,0.00,,,0.00,WUHU21623XXSP,2013-01-24 00:58:00,
2013-01-23 18:59:00,68.9,54.0,30.21,SSE,157,7.0,10.0,59,0.00,,,0.00,WUHU21623XXSP,2013-01-24 00:59:00,
2013-01-23 19:00:00,68.7,53.8,30.22,SSE,168,5.0,10.0,59,0.00,,,0.00,WUHU21623XXSP,2013-01-24 01:00:00,
2013-01-23 19:03:00,68.7,53.8,30.21,SSW,192,4.0,10.0,59,0.00,,,0.00,WUHU21623XXSP,2013-01-24 01:03:00,
2013-01-23 19:04:00,68.7,53.8,30.21,South,175,4.0,10.0,59,0.00,,,0.00,WUHU21623XXSP,2013-01-24 01:04:00,
2013-01-23 19:05:00,68.7,53.8,30.21,South,176,4.0,10.0,59,0.00,,,0.00,WUHU21623XXSP,2013-01-24 01:05:00,
2013-01-23 19:08:00,68.7,53.8,30.20,SSE,166,4.0,10.0,59,0.00,,,0.00,WUHU21623XXSP,2013-01-24 01:08:00,
2013-01-23 19:09:00,68.7,53.8,30.20,South,170,4.0,10.0,59,0.00,,,0.00,WUHU21623XXSP,2013-01-24 01:09:00,
2013-01-23 19:10:00,68.7,53.8,30.20,South,180,5.0,10.0,59,0.00,,,0.00,WUHU21623XXSP,2013-01-24 01:10:00,
2013-01-23 19:13:00,68.5,53.6,30.20,SSE,157,5.0,10.0,59,0.00,,,0.00,WUHU21623XXSP,2013-01-24 01:13:00,
2013-01-23 19:15:00,68.5,53.6,30.20,South,178,6.0,10.0,59,0.00,,,0.00,WUHU21623XXSP,2013-01-24 01:15:00,
2013-01-23 19:18:00,68.5,53.6,30.20,South,169,4.0,9.0,59,0.00,,,0.00,WUHU21623XXSP,2013-01-24 01:18:00,
2013-01-23 19:20:00,68.5,53.6,30.20,South,174,3.0,9.0,59,0.00,,,0.00,WUHU21623XXSP,2013-01-24 01:20:00,
2013-01-23 19:21:00,68.5,53.6,30.20,South,180,4.0,9.0,59,0.00,,,0.00,WUHU21623XXSP,2013-01-24 01:21:00,
2013-01-23 19:23:00,68.4,53.5,30.20,South,170,4.0,9.0,59,0.00,,,0.00,WUHU21623XXSP,2013-01-24 01:23:00,
2013-01-23 19:25:00,68.4,53.5,30.20,SSE,168,6.0,10.0,59,0.00,,,0.00,WUHU21623XXSP,2013-01-24 01:25:00,
2013-01-23 19:26:00,68.4,53.5,30.20,South,169,6.0,10.0,59,0.00,,,0.00,WUHU21623XXSP,2013-01-24 01:26:00,
2013-01-23 19:28:00,68.2,53.8,30.20,SSE,163,6.0,10.0,60,0.00,,,0.00,WUHU21623XXSP,2013-01-24 01:28:00,
2013-01-23 19:29:00,68.2,53.8,30.20,SSE,164,6.0,11.0,60,0.00,,,0.00,WUHU21623XXSP,2013-01-24 01:29:00,
2013-01-23 19:30:00,68.2,53.8,30.20,SSW,202,6.0,11.0,60,0.00,,,0.00,WUHU21623XXSP,2013-01-24 01:30:00,
2013-01-23 19:31:00,68.2,53.8,30.20,SSW,196,5.0,11.0,60,0.00,,,0.00,WUHU21623XXSP,2013-01-24 01:31:00,
2013-01-23 19:34:00,68.2,53.8,30.20,SSE,159,5.0,11.0,60,0.00,,,0.00,WUHU21623XXSP,2013-01-24 01:34:00,
2013-01-23 19:36:00,68.2,53.8,30.21,South,174,6.0,11.0,60,0.00,,,0.00,WUHU21623XXSP,2013-01-24 01:36:00,
2013-01-23 19:39:00,68.0,53.6,30.21,SSE,151,6.0,11.0,60,0.00,,,0.00,WUHU21623XXSP,2013-01-24 01:39:00,
2013-01-23 19:41:00,68.0,53.6,30.20,SSE,165,7.0,11.0,60,0.00,,,0.00,WUHU21623XXSP,2013-01-24 01:41:00,
2013-01-23 19:44:00,67.8,53.4,30.20,SSE,154,5.0,11.0,60,0.00,,,0.00,WUHU21623XXSP,2013-01-24 01:44:00,
2013-01-23 19:45:00,67.8,53.4,30.21,SSE,157,6.0,11.0,60,0.00,,,0.00,WUHU21623XXSP,2013-01-24 01:45:00,
2013-01-23 19:46:00,67.8,53.4,30.21,SE,135,5.0,11.0,60,0.00,,,0.00,WUHU21623XXSP,2013-01-24 01:46:00,
2013-01-23 19:49:00,67.8,53.4,30.21,SSE,157,7.0,10.0,60,0.00,,,0.00,WUHU21623XXSP,2013-01-24 01:49:00,
2013-01-23 19:50:00,67.8,53.4,30.21,SSE,151,5.0,10.0,60,0.00,,,0.00,WUHU21623XXSP,2013-01-24 01:50:00,
2013-01-23 19:51:00,67.8,53.4,30.21,SSE,157,7.0,10.0,60,0.00,,,0.00,WUHU21623XXSP,2013-01-24 01:51:00,
2013-01-23 19:54:00,67.8,53.4,30.21,South,180,7.0,13.0,60,0.00,,,0.00,WUHU21623XXSP,2013-01-24 01:54:00,
2013-01-23 19:55:00,67.8,53.4,30.21,SSE,166,6.0,13.0,60,0.00,,,0.00,WUHU21623XXSP,2013-01-24 01:55:00,
2013-01-23 19:56:00,67.8,53.4,30.21,South,170,5.0,13.0,60,0.00,,,0.00,WUHU21623XXSP,2013-01-24 01:56:00,
2013-01-23 19:57:00,67.8,53.4,30.21,South,183,4.0,13.0,60,0.00,,,0.00,WUHU21623XXSP,2013-01-24 01:57:00,
2013-01-23 19:59:00,67.8,53.4,30.21,South,172,4.0,13.0,60,0.00,,,0.00,WUHU21623XXSP,2013-01-24 01:59:00,
2013-01-23 20:00:00,67.8,53.4,30.21,South,180,5.0,13.0,60,0.00,,,0.00,WUHU21623XXSP,2013-01-24 02:00:00,
2013-01-23 20:01:00,67.8,53.4,30.21,SSE,163,5.0,13.0,60,0.00,,,0.00,WUHU21623XXSP,2013-01-24 02:01:00,
2013-01-23 20:02:00,67.6,53.3,30.21,SSE,163,5.0,13.0,60,0.00,,,0.00,WUHU21623XXSP,2013-01-24 02:02:00,
2013-01-23 20:04:00,67.6,53.3,30.21,South,173,3.0,9.0,60,0.00,,,0.00,WUHU21623XXSP,2013-01-24 02:04:00,
2013-01-23 20:05:00,67.6,53.3,30.21,South,171,3.0,7.0,60,0.00,,,0.00,WUHU21623XXSP,2013-01-24 02:05:00,
2013-01-23 20:06:00,67.6,53.3,30.21,SSW,202,3.0,7.0,60,0.00,,,0.00,WUHU21623XXSP,2013-01-24 02:06:00,
2013-01-23 20:07:00,67.6,53.3,30.21,South,180,8.0,8.0,60,0.00,,,0.00,WUHU21623XXSP,2013-01-24 02:07:00,
2013-01-23 20:09:00,67.6,53.7,30.21,SSE,167,5.0,11.0,61,0.00,,,0.00,WUHU21623XXSP,2013-01-24 02:09:00,
2013-01-23 20:10:00,67.6,53.7,30.21,SSE,165,4.0,11.0,61,0.00,,,0.00,WUHU21623XXSP,2013-01-24 02:10:00,
2013-01-23 20:11:00,67.6,53.7,30.21,SSE,157,8.0,11.0,61,0.00,,,0.00,WUHU21623XXSP,2013-01-24 02:11:00,
2013-01-23 20:12:00,67.6,53.7,30.21,South,180,7.0,11.0,61,0.00,,,0.00,WUHU21623XXSP,2013-01-24 02:12:00,
2013-01-23 20:14:00,67.5,53.5,30.22,South,180,6.0,11.0,61,0.00,,,0.00,WUHU21623XXSP,2013-01-24 02:14:00,
2013-01-23 20:15:00,67.5,53.5,30.22,South,170,4.0,11.0,61,0.00,,,0.00,WUHU21623XXSP,2013-01-24 02:15:00,
2013-01-23 20:16:00,67.5,53.5,30.22,South,169,3.0,11.0,61,0.00,,,0.00,WUHU21623XXSP,2013-01-24 02:16:00,
2013-01-23 20:18:00,67.5,53.5,30.22,SSE,168,3.0,9.0,61,0.00,,,0.00,WUHU21623XXSP,2013-01-24 02:18:00,
2013-01-23 20:20:00,67.3,53.4,30.22,SSE,157,4.0,9.0,61,0.00,,,0.00,WUHU21623XXSP,2013-01-24 02:20:00,
2013-01-23 20:22:00,67.3,53.4,30.22,SSE,160,4.0,9.0,61,0.00,,,0.00,WUHU21623XXSP,2013-01-24 02:22:00,
2013-01-23 20:23:00,67.3,53.4,30.22,ESE,112,5.0,9.0,61,0.00,,,0.00,WUHU21623XXSP,2013-01-24 02:23:00,
2013-01-23 20:25:00,67.3,53.4,30.22,SSE,152,5.0,8.0,61,0.00,,,0.00,WUHU21623XXSP,2013-01-24 02:25:00,
2013-01-23 20:27:00,67.3,53.4,30.22,South,171,3.0,8.0,61,0.00,,,0.00,WUHU21623XXSP,2013-01-24 02:27:00,
2013-01-23 20:28:00,67.3,53.4,30.22,South,180,7.0,8.0,61,0.00,,,0.00,WUHU21623XXSP,2013-01-24 02:28:00,
2013-01-23 20:30:00,67.3,53.4,30.22,South,176,3.0,7.0,61,0.00,,,0.00,WUHU21623XXSP,2013-01-24 02:30:00,
2013-01-23 20:32:00,67.3,53.4,30.22,South,175,3.0,7.0,61,0.00,,,0.00,WUHU21623XXSP,2013-01-24 02:32:00,
2013-01-23 20:33:00,67.3,53.4,30.22,South,177,3.0,7.0,61,0.00,,,0.00,WUHU21623XXSP,2013-01-24 02:33:00,
2013-01-23 20:35:00,67.1,53.2,30.22,SSE,165,2.0,7.0,61,0.00,,,0.00,WUHU21623XXSP,2013-01-24 02:35:00,
2013-01-23 20:37:00,67.1,53.2,30.22,South,183,2.0,7.0,61,0.00,,,0.00,WUHU21623XXSP,2013-01-24 02:37:00,
2013-01-23 20:38:00,67.1,53.2,30.22,SSW,196,3.0,6.0,61,0.00,,,0.00,WUHU21623XXSP,2013-01-24 02:38:00,
2013-01-23 20:40:00,67.1,53.2,30.23,South,171,2.0,6.0,61,0.00,,,0.00,WUHU21623XXSP,2013-01-24 02:40:00,
2013-01-23 20:42:00,67.1,53.2,30.23,South,169,4.0,6.0,61,0.00,,,0.00,WUHU21623XXSP,2013-01-24 02:42:00,
2013-01-23 20:43:00,67.1,53.2,30.23,SSE,157,3.0,6.0,61,0.00,,,0.00,WUHU21623XXSP,2013-01-24 02:43:00,
2013-01-23 20:45:00,67.1,53.2,30.23,South,180,3.0,6.0,61,0.00,,,0.00,WUHU21623XXSP,2013-01-24 02:45:00,
2013-01-23 20:46:00,67.1,53.2,30.23,South,180,3.0,6.0,61,0.00,,,0.00,WUHU21623XXSP,2013-01-24 02:46:00,
2013-01-23 20:48:00,67.1,53.2,30.23,SSE,157,3.0,8.0,61,0.00,,,0.00,WUHU21623XXSP,2013-01-24 02:48:00,
2013-01-23 20:49:00,67.1,53.2,30.23,SSE,167,3.0,8.0,61,0.00,,,0.00,WUHU21623XXSP,2013-01-24 02:49:00,
2013-01-23 20:50:00,66.9,53.0,30.23,South,175,3.0,8.0,61,0.00,,,0.00,WUHU21623XXSP,2013-01-24 02:50:00,
2013-01-23 20:51:00,66.9,53.0,30.23,South,174,3.0,8.0,61,0.00,,,0.00,WUHU21623XXSP,2013-01-24 02:51:00,
2013-01-23 20:53:00,66.9,53.0,30.23,South,181,3.0,8.0,61,0.00,,,0.00,WUHU21623XXSP,2013-01-24 02:53:00,
2013-01-23 20:54:00,66.9,53.0,30.23,South,189,4.0,8.0,61,0.00,,,0.00,WUHU21623XXSP,2013-01-24 02:54:00,
2013-01-23 20:56:00,66.9,53.0,30.23,SSE,157,4.0,6.0,61,0.00,,,0.00,WUHU21623XXSP,2013-01-24 02:56:00,
2013-01-23 20:58:00,66.9,53.0,30.23,South,175,3.0,6.0,61,0.00,,,0.00,WUHU21623XXSP,2013-01-24 02:58:00,
2013-01-23 20:59:00,66.9,53.0,30.23,SSE,167,3.0,6.0,61,0.00,,,0.00,WUHU21623XXSP,2013-01-24 02:59:00,
2013-01-23 21:01:00,66.9,53.0,30.23,South,180,4.0,7.0,61,0.00,,,0.00,WUHU21623XXSP,2013-01-24 03:01:00,
2013-01-23 21:03:00,66.9,53.0,30.23,South,171,4.0,7.0,61,0.00,,,0.00,WUHU21623XXSP,2013-01-24 03:03:00,
2013-01-23 21:04:00,66.9,53.0,30.23,South,178,4.0,7.0,61,0.00,,,0.00,WUHU21623XXSP,2013-01-24 03:04:00,
2013-01-23 21:06:00,66.7,52.9,30.23,SSW,202,3.0,7.0,61,0.00,,,0.00,WUHU21623XXSP,2013-01-24 03:06:00,
2013-01-23 21:08:00,66.7,53.3,30.23,SSE,157,4.0,7.0,62,0.00,,,0.00,WUHU21623XXSP,2013-01-24 03:08:00,
2013-01-23 21:09:00,66.7,53.3,30.23,South,176,3.0,7.0,62,0.00,,,0.00,WUHU21623XXSP,2013-01-24 03:09:00,
2013-01-23 21:11:00,66.7,53.3,30.23,SSE,157,5.0,7.0,62,0.00,,,0.00,WUHU21623XXSP,2013-01-24 03:11:00,
2013-01-23 21:13:00,66.7,53.3,30.23,South,180,4.0,8.0,62,0.00,,,0.00,WUHU21623XXSP,2013-01-24 03:13:00,
2013-01-23 21:14:00,66.7,53.3,30.23,South,180,4.0,8.0,62,0.00,,,0.00,WUHU21623XXSP,2013-01-24 03:14:00,
2013-01-23 21:16:00,66.7,53.3,30.23,SW,225,5.0,9.0,62,0.00,,,0.00,WUHU21623XXSP,2013-01-24 03:16:00,
2013-01-23 21:17:00,66.7,53.3,30.23,SW,225,5.0,9.0,62,0.00,,,0.00,WUHU21623XXSP,2013-01-24 03:17:00,
2013-01-23 21:18:00,66.7,53.3,30.23,SSE,168,3.0,9.0,62,0.00,,,0.00,WUHU21623XXSP,2013-01-24 03:18:00,
2013-01-23 21:19:00,66.7,53.3,30.23,South,183,4.0,9.0,62,0.00,,,0.00,WUHU21623XXSP,2013-01-24 03:19:00,
2013-01-23 21:21:00,66.6,53.1,30.23,SSW,192,3.0,9.0,62,0.00,,,0.00,WUHU21623XXSP,2013-01-24 03:21:00,
2013-01-23 21:22:00,66.6,53.1,30.23,South,181,3.0,9.0,62,0.00,,,0.00,WUHU21623XXSP,2013-01-24 03:22:00,
2013-01-23 21:23:00,66.6,53.1,30.23,SSE,157,5.0,9.0,62,0.00,,,0.00,WUHU21623XXSP,2013-01-24 03:23:00,
2013-01-23 21:24:00,66.6,53.1,30.23,SSE,168,3.0,9.0,62,0.00,,,0.00,WUHU21623XXSP,2013-01-24 03:24:00,
2013-01-23 21:26:00,66.6,53.1,30.23,South,174,4.0,9.0,62,0.00,,,0.00,WUHU21623XXSP,2013-01-24 03:26:00,
2013-01-23 21:27:00,66.6,53.1,30.23,South,180,4.0,9.0,62,0.00,,,0.00,WUHU21623XXSP,2013-01-24 03:27:00,
2013-01-23 21:28:00,66.6,53.1,30.23,South,180,2.0,9.0,62,0.00,,,0.00,WUHU21623XXSP,2013-01-24 03:28:00,
2013-01-23 21:29:00,66.6,53.1,30.24,South,177,2.0,9.0,62,0.00,,,0.00,WUHU21623XXSP,2013-01-24 03:29:00,
2013-01-23 21:32:00,66.4,53.0,30.23,South,175,2.0,9.0,62,0.00,,,0.00,WUHU21623XXSP,2013-01-24 03:32:00,
2013-01-23 21:34:00,66.4,53.0,30.24,SSE,157,3.0,9.0,62,0.00,,,0.00,WUHU21623XXSP,2013-01-24 03:34:00,
2013-01-23 21:37:00,66.4,53.0,30.23,SSE,160,4.0,5.0,62,0.00,,,0.00,WUHU21623XXSP,2013-01-24 03:37:00,
2013-01-23 21:38:00,66.4,53.0,30.23,SSE,160,3.0,5.0,62,0.00,,,0.00,WUHU21623XXSP,2013-01-24 03:38:00,
2013-01-23 21:39:00,66.4,53.0,30.23,SE,135,4.0,5.0,62,0.00,,,0.00,WUHU21623XXSP,2013-01-24 03:39:00,
2013-01-23 21:40:00,66.2,52.8,30.23,South,180,4.0,5.0,62,0.00,,,0.00,WUHU21623XXSP,2013-01-24 03:40:00,
2013-01-23 21:42:00,66.2,52.8,30.24,South,178,2.0,5.0,62,0.00,,,0.00,WUHU21623XXSP,2013-01-24 03:42:00,
2013-01-23 21:43:00,66.2,52.8,30.23,South,180,3.0,5.0,62,0.00,,,0.00,WUHU21623XXSP,2013-01-24 03:43:00,
2013-01-23 21:44:00,66.2,52.8,30.24,SSE,166,3.0,5.0,62,0.00,,,0.00,WUHU21623XXSP,2013-01-24 03:44:00,
2013-01-23 21:45:00,66.0,52.6,30.24,SSE,159,3.0,5.0,62,0.00,,,0.00,WUHU21623XXSP,2013-01-24 03:45:00,
2013-01-23 21:47:00,66.0,52.6,30.24,South,180,4.0,5.0,62,0.00,,,0.00,WUHU21623XXSP,2013-01-24 03:47:00,
2013-01-23 21:48:00,66.0,52.6,30.24,South,179,3.0,6.0,62,0.00,,,0.00,WUHU21623XXSP,2013-01-24 03:48:00,
2013-01-23 21:49:00,66.0,52.6,30.23,South,174,3.0,6.0,62,0.00,,,0.00,WUHU21623XXSP,2013-01-24 03:49:00,
2013-01-23 21:50:00,66.0,52.6,30.23,SSE,163,4.0,6.0,62,0.00,,,0.00,WUHU21623XXSP,2013-01-24 03:50:00,
2013-01-23 21:53:00,66.0,52.6,30.23,South,173,2.0,6.0,62,0.00,,,0.00,WUHU21623XXSP,2013-01-24 03:53:00,
2013-01-23 21:54:00,66.0,52.6,30.23,South,180,3.0,6.0,62,0.00,,,0.00,WUHU21623XXSP,2013-01-24 03:54:00,
2013-01-23 21:55:00,66.0,52.6,30.23,SSE,153,3.0,6.0,62,0.00,,,0.00,WUHU21623XXSP,2013-01-24 03:55:00,
2013-01-23 21:58:00,66.0,52.6,30.23,South,177,4.0,7.0,62,0.00,,,0.00,WUHU21623XXSP,2013-01-24 03:58:00,
2013-01-23 22:00:00,66.0,52.6,30.23,SW,225,7.0,7.0,62,0.00,,,0.00,WUHU21623XXSP,2013-01-24 04:00:00,
2013-01-23 22:01:00,66.0,52.6,30.23,SSW,200,3.0,7.0,62,0.00,,,0.00,WUHU21623XXSP,2013-01-24 04:01:00,
2013-01-23 22:03:00,66.0,52.6,30.23,SSE,160,3.0,7.0,62,0.00,,,0.00,WUHU21623XXSP,2013-01-24 04:03:00,
2013-01-23 22:05:00,65.8,52.4,30.23,SSE,162,4.0,7.0,62,0.00,,,0.00,WUHU21623XXSP,2013-01-24 04:05:00,
2013-01-23 22:06:00,66.0,52.6,30.23,South,180,5.0,7.0,62,0.00,,,0.00,WUHU21623XXSP,2013-01-24 04:06:00,
2013-01-23 22:08:00,66.0,52.6,30.22,South,176,4.0,7.0,62,0.00,,,0.00,WUHU21623XXSP,2013-01-24 04:08:00,
2013-01-23 22:10:00,65.8,52.4,30.22,South,180,3.0,7.0,62,0.00,,,0.00,WUHU21623XXSP,2013-01-24 04:10:00,
2013-01-23 22:11:00,65.8,52.4,30.22,South,184,5.0,7.0,62,0.00,,,0.00,WUHU21623XXSP,2013-01-24 04:11:00,
2013-01-23 22:13:00,65.8,52.4,30.22,South,188,3.0,7.0,62,0.00,,,0.00,WUHU21623XXSP,2013-01-24 04:13:00,
2013-01-23 22:15:00,65.8,52.4,30.22,South,177,4.0,9.0,62,0.00,,,0.00,WUHU21623XXSP,2013-01-24 04:15:00,
2013-01-23 22:16:00,65.8,52.9,30.22,South,178,3.0,9.0,63,0.00,,,0.00,WUHU21623XXSP,2013-01-24 04:16:00,
2013-01-23 22:18:00,65.8,52.9,30.22,SSE,161,3.0,9.0,63,0.00,,,0.00,WUHU21623XXSP,2013-01-24 04:18:00,
2013-01-23 22:20:00,65.7,52.7,30.22,South,180,4.0,9.0,63,0.00,,,0.00,WUHU21623XXSP,2013-01-24 04:20:00,
2013-01-23 22:21:00,65.7,52.7,30.22,SSW,202,5.0,9.0,63,0.00,,,0.00,WUHU21623XXSP,2013-01-24 04:21:00,
2013-01-23 22:23:00,65.7,52.7,30.22,SSW,197,3.0,7.0,63,0.00,,,0.00,WUHU21623XXSP,2013-01-24 04:23:00,
2013-01-23 22:25:00,65.5,52.5,30.22,South,184,3.0,5.0,63,0.00,,,0.00,WUHU21623XXSP,2013-01-24 04:25:00,
2013-01-23 22:27:00,65.5,52.5,30.22,South,184,3.0,5.0,63,0.00,,,0.00,WUHU21623XXSP,2013-01-24 04:27:00,
2013-01-23 22:28:00,65.5,52.5,30.22,South,186,3.0,5.0,63,0.00,,,0.00,WUHU21623XXSP,2013-01-24 04:28:00,
2013-01-23 22:29:00,65.5,52.5,30.22,SSW,202,4.0,5.0,63,0.00,,,0.00,WUHU21623XXSP,2013-01-24 04:29:00,
2013-01-23 22:31:00,65.5,52.5,30.22,South,173,3.0,5.0,63,0.00,,,0.00,WUHU21623XXSP,2013-01-24 04:31:00,
2013-01-23 22:32:00,65.5,52.5,30.22,South,180,4.0,5.0,63,0.00,,,0.00,WUHU21623XXSP,2013-01-24 04:32:00,
2013-01-23 22:33:00,65.5,52.5,30.22,South,181,4.0,5.0,63,0.00,,,0.00,WUHU21623XXSP,2013-01-24 04:33:00,
2013-01-23 22:34:00,65.5,52.5,30.22,South,184,4.0,7.0,63,0.00,,,0.00,WUHU21623XXSP,2013-01-24 04:34:00,
2013-01-23 22:36:00,65.5,52.5,30.22,South,180,7.0,7.0,63,0.00,,,0.00,WUHU21623XXSP,2013-01-24 04:36:00,
2013-01-23 22:37:00,65.5,52.5,30.22,SSW,202,5.0,7.0,63,0.00,,,0.00,WUHU21623XXSP,2013-01-24 04:37:00,
2013-01-23 22:38:00,65.5,52.5,30.22,South,182,4.0,7.0,63,0.00,,,0.00,WUHU21623XXSP,2013-01-24 04:38:00,
2013-01-23 22:39:00,65.3,52.3,30.22,SE,135,5.0,7.0,63,0.00,,,0.00,WUHU21623XXSP,2013-01-24 04:39:00,
2013-01-23 22:41:00,65.3,52.3,30.22,South,180,5.0,7.0,63,0.00,,,0.00,WUHU21623XXSP,2013-01-24 04:41:00,
2013-01-23 22:42:00,65.3,52.3,30.22,South,180,5.0,7.0,63,0.00,,,0.00,WUHU21623XXSP,2013-01-24 04:42:00,
2013-01-23 22:43:00,65.1,52.3,30.22,South,178,4.0,7.0,63,0.00,,,0.00,WUHU21623XXSP,2013-01-24 04:43:00,
2013-01-23 22:44:00,65.1,52.2,30.22,South,176,4.0,7.0,63,0.00,,,0.00,WUHU21623XXSP,2013-01-24 04:44:00,
2013-01-23 22:46:00,65.1,52.2,30.22,South,180,5.0,8.0,63,0.00,,,0.00,WUHU21623XXSP,2013-01-24 04:46:00,
2013-01-23 22:48:00,65.1,52.6,30.22,SSE,165,4.0,8.0,64,0.00,,,0.00,WUHU21623XXSP,2013-01-24 04:48:00,
2013-01-23 22:49:00,65.1,52.6,30.22,SSW,197,4.0,8.0,64,0.00,,,0.00,WUHU21623XXSP,2013-01-24 04:49:00,
2013-01-23 22:51:00,65.1,52.6,30.22,South,177,3.0,8.0,64,0.00,,,0.00,WUHU21623XXSP,2013-01-24 04:51:00,
2013-01-23 22:53:00,65.1,52.6,30.22,South,182,3.0,8.0,64,0.00,,,0.00,WUHU21623XXSP,2013-01-24 04:53:00,
2013-01-23 22:54:00,65.1,52.6,30.22,South,180,3.0,8.0,64,0.00,,,0.00,WUHU21623XXSP,2013-01-24 04:54:00,
2013-01-23 22:56:00,65.1,52.6,30.22,South,176,3.0,7.0,64,0.00,,,0.00,WUHU21623XXSP,2013-01-24 04:56:00,
2013-01-23 22:58:00,64.9,52.4,30.22,SSW,202,4.0,7.0,64,0.00,,,0.00,WUHU21623XXSP,2013-01-24 04:58:00,
2013-01-23 22:59:00,64.9,52.4,30.22,South,180,6.0,7.0,64,0.00,,,0.00,WUHU21623XXSP,2013-01-24 04:59:00,
2013-01-23 23:00:00,64.9,52.4,30.22,South,183,4.0,7.0,64,0.00,,,0.00,WUHU21623XXSP,2013-01-24 05:00:00,
2013-01-23 23:01:00,64.9,52.4,30.22,South,180,7.0,7.0,64,0.00,,,0.00,WUHU21623XXSP,2013-01-24 05:01:00,
2013-01-23 23:05:00,64.9,52.4,30.22,South,169,4.0,9.0,64,0.00,,,0.00,WUHU21623XXSP,2013-01-24 05:05:00,
2013-01-23 23:06:00,64.9,52.4,30.22,SSE,168,3.0,9.0,64,0.00,,,0.00,WUHU21623XXSP,2013-01-24 05:06:00,
2013-01-23 23:10:00,64.8,52.3,30.22,SSE,158,4.0,11.0,64,0.00,,,0.00,WUHU21623XXSP,2013-01-24 05:10:00,
2013-01-23 23:11:00,64.8,52.3,30.22,SSE,157,5.0,11.0,64,0.00,,,0.00,WUHU21623XXSP,2013-01-24 05:11:00,
2013-01-23 23:15:00,64.6,52.5,30.22,South,173,4.0,11.0,65,0.00,,,0.00,WUHU21623XXSP,2013-01-24 05:15:00,
2013-01-23 23:16:00,64.6,52.5,30.22,South,178,4.0,11.0,65,0.00,,,0.00,WUHU21623XXSP,2013-01-24 05:16:00,
2013-01-23 23:21:00,64.6,52.5,30.22,SW,225,8.0,8.0,65,0.00,,,0.00,WUHU21623XXSP,2013-01-24 05:21:00,
2013-01-23 23:26:00,64.6,52.5,30.22,South,180,6.0,9.0,65,0.00,,,0.00,WUHU21623XXSP,2013-01-24 05:26:00,
2013-01-23 23:27:00,64.4,52.3,30.22,South,188,4.0,9.0,65,0.00,,,0.00,WUHU21623XXSP,2013-01-24 05:27:00,
2013-01-23 23:31:00,64.2,52.2,30.22,South,180,5.0,9.0,65,0.00,,,0.00,WUHU21623XXSP,2013-01-24 05:31:00,
2013-01-23 23:32:00,64.2,52.2,30.22,SSE,166,4.0,9.0,65,0.00,,,0.00,WUHU21623XXSP,2013-01-24 05:32:00,
2013-01-23 23:36:00,64.2,52.2,30.22,SSE,156,4.0,9.0,65,0.00,,,0.00,WUHU21623XXSP,2013-01-24 05:36:00,
2013-01-23 23:37:00,64.2,52.2,30.22,SSE,158,4.0,9.0,65,0.00,,,0.00,WUHU21623XXSP,2013-01-24 05:37:00,
2013-01-23 23:41:00,64.2,52.2,30.22,SSW,200,4.0,9.0,65,0.00,,,0.00,WUHU21623XXSP,2013-01-24 05:41:00,
2013-01-23 23:42:00,64.2,52.2,30.22,SSW,200,4.0,9.0,65,0.00,,,0.00,WUHU21623XXSP,2013-01-24 05:42:00,
2013-01-23 23:43:00,64.2,52.2,30.23,South,191,5.0,9.0,65,0.00,,,0.00,WUHU21623XXSP,2013-01-24 05:43:00,
2013-01-23 23:46:00,64.2,52.6,30.23,South,191,4.0,8.0,66,0.00,,,0.00,WUHU21623XXSP,2013-01-24 05:46:00,
2013-01-23 23:47:00,64.2,52.6,30.22,South,188,4.0,8.0,66,0.00,,,0.00,WUHU21623XXSP,2013-01-24 05:47:00,
2013-01-23 23:48:00,64.0,52.4,30.22,South,187,4.0,8.0,66,0.00,,,0.00,WUHU21623XXSP,2013-01-24 05:48:00,
2013-01-23 23:51:00,64.0,52.4,30.23,SSE,157,4.0,9.0,66,0.00,,,0.00,WUHU21623XXSP,2013-01-24 05:51:00,
2013-01-23 23:52:00,64.0,52.4,30.23,South,183,2.0,9.0,66,0.00,,,0.00,WUHU21623XXSP,2013-01-24 05:52:00,
2013-01-23 23:53:00,64.0,52.4,30.22,SSW,193,2.0,9.0,66,0.00,,,0.00,WUHU21623XXSP,2013-01-24 05:53:00,
2013-01-23 23:56:00,64.0,52.4,30.22,SSW,193,4.0,9.0,66,0.00,,,0.00,WUHU21623XXSP,2013-01-24 05:56:00,
2013-01-23 23:57:00,64.0,52.4,30.22,South,180,6.0,9.0,66,0.00,,,0.00,WUHU21623XXSP,2013-01-24 05:57:00,
2013-01-23 23:58:00,64.0,52.4,30.22,SSE,157,4.0,9.0,66,0.00,,,0.00,WUHU21623XXSP,2013-01-24 05:58:00,